Home > Products > Valid Products > TAF

000
FTUS42 KRAH 270542
TAFINT
TAF
KINT 270542Z 2706/2806 23010KT P6SM FEW045 BKN250
      TEMPO 2706/2708 32012G18KT 3SM -SHRA BKN015 OVC040
     FM270800 36012G18KT 5SM -RA OVC035
      TEMPO 2712/2714 3SM -RA BR OVC015
     FM271900 34006KT P6SM BKN035=



000
FTUS42 KRAH 270542
TAFGSO
TAF
KGSO 270542Z 2706/2806 23010KT P6SM FEW045 BKN250
      TEMPO 2706/2708 32012G18KT 3SM -SHRA BKN015 OVC040
     FM270800 36012G18KT 5SM -RA OVC035
      TEMPO 2712/2714 3SM -RA BR OVC015
     FM271900 34006KT P6SM BKN035=



000
FTUS42 KRAH 270542
TAFGSO
TAF
KGSO 270542Z 2706/2806 23010KT P6SM FEW045 BKN250
      TEMPO 2706/2708 32012G18KT 3SM -SHRA BKN015 OVC040
     FM270800 36012G18KT 5SM -RA OVC035
      TEMPO 2712/2714 3SM -RA BR OVC015
     FM271900 34006KT P6SM BKN035=



000
FTUS42 KRAH 270542
TAFRWI
TAF
KRWI 270542Z 2706/2806 23010KT P6SM FEW045 BKN250
      TEMPO 2707/2709 34012G18KT 3SM -SHRA BKN015 OVC040
     FM270900 03012G20KT 5SM -RA OVC035
      TEMPO 2710/2714 3SM -RA BR OVC012
     FM271900 03012KT P6SM BKN015 OVC040=



000
FTUS42 KRAH 270542
TAFRWI
TAF
KRWI 270542Z 2706/2806 23010KT P6SM FEW045 BKN250
      TEMPO 2707/2709 34012G18KT 3SM -SHRA BKN015 OVC040
     FM270900 03012G20KT 5SM -RA OVC035
      TEMPO 2710/2714 3SM -RA BR OVC012
     FM271900 03012KT P6SM BKN015 OVC040=



000
FTUS42 KRAH 270542
TAFFAY
TAF
KFAY 270542Z 2706/2806 23010KT P6SM FEW045 BKN250
      TEMPO 2709/2711 34012G18KT 3SM -SHRA BKN015 OVC040
     FM271100 03012G20KT 5SM -RA OVC035
      TEMPO 2712/2716 3SM -RA BR OVC012
     FM272100 03012KT P6SM BKN015 OVC040=



000
FTUS42 KRAH 270542
TAFRDU
TAF
KRDU 270542Z 2706/2806 23010KT P6SM FEW045 BKN250
      TEMPO 2707/2709 34012G18KT 3SM -SHRA BKN015 OVC040
     FM270900 03012G20KT 5SM -RA OVC035
      TEMPO 2710/2714 3SM -RA BR OVC012
     FM271900 03012KT P6SM BKN015 OVC040=



000
FTUS42 KRAH 270542
TAFRDU
TAF
KRDU 270542Z 2706/2806 23010KT P6SM FEW045 BKN250
      TEMPO 2707/2709 34012G18KT 3SM -SHRA BKN015 OVC040
     FM270900 03012G20KT 5SM -RA OVC035
      TEMPO 2710/2714 3SM -RA BR OVC012
     FM271900 03012KT P6SM BKN015 OVC040=



000
FTUS42 KRAH 270542
TAFFAY
TAF
KFAY 270542Z 2706/2806 23010KT P6SM FEW045 BKN250
      TEMPO 2709/2711 34012G18KT 3SM -SHRA BKN015 OVC040
     FM271100 03012G20KT 5SM -RA OVC035
      TEMPO 2712/2716 3SM -RA BR OVC012
     FM272100 03012KT P6SM BKN015 OVC040=



000
FTUS42 KRAH 270542
TAFGSO
TAF
KGSO 270542Z 2706/2806 23010KT P6SM FEW045 BKN250
      TEMPO 2706/2708 32012G18KT 3SM -SHRA BKN015 OVC040
     FM270800 36012G18KT 5SM -RA OVC035
      TEMPO 2712/2714 3SM -RA BR OVC015
     FM271900 34006KT P6SM BKN035=



000
FTUS42 KRAH 270542
TAFINT
TAF
KINT 270542Z 2706/2806 23010KT P6SM FEW045 BKN250
      TEMPO 2706/2708 32012G18KT 3SM -SHRA BKN015 OVC040
     FM270800 36012G18KT 5SM -RA OVC035
      TEMPO 2712/2714 3SM -RA BR OVC015
     FM271900 34006KT P6SM BKN035=



000
FTUS42 KRAH 270542
TAFRWI
TAF
KRWI 270542Z 2706/2806 23010KT P6SM FEW045 BKN250
      TEMPO 2707/2709 34012G18KT 3SM -SHRA BKN015 OVC040
     FM270900 03012G20KT 5SM -RA OVC035
      TEMPO 2710/2714 3SM -RA BR OVC012
     FM271900 03012KT P6SM BKN015 OVC040=



000
FTUS42 KRAH 270542
TAFFAY
TAF
KFAY 270542Z 2706/2806 23010KT P6SM FEW045 BKN250
      TEMPO 2709/2711 34012G18KT 3SM -SHRA BKN015 OVC040
     FM271100 03012G20KT 5SM -RA OVC035
      TEMPO 2712/2716 3SM -RA BR OVC012
     FM272100 03012KT P6SM BKN015 OVC040=



000
FTUS42 KRAH 270542
TAFRDU
TAF
KRDU 270542Z 2706/2806 23010KT P6SM FEW045 BKN250
      TEMPO 2707/2709 34012G18KT 3SM -SHRA BKN015 OVC040
     FM270900 03012G20KT 5SM -RA OVC035
      TEMPO 2710/2714 3SM -RA BR OVC012
     FM271900 03012KT P6SM BKN015 OVC040=



000
FTUS42 KRAH 270542
TAFINT
TAF
KINT 270542Z 2706/2806 23010KT P6SM FEW045 BKN250
      TEMPO 2706/2708 32012G18KT 3SM -SHRA BKN015 OVC040
     FM270800 36012G18KT 5SM -RA OVC035
      TEMPO 2712/2714 3SM -RA BR OVC015
     FM271900 34006KT P6SM BKN035=



000
FTUS42 KRAH 270542
TAFGSO
TAF
KGSO 270542Z 2706/2806 23010KT P6SM FEW045 BKN250
      TEMPO 2706/2708 32012G18KT 3SM -SHRA BKN015 OVC040
     FM270800 36012G18KT 5SM -RA OVC035
      TEMPO 2712/2714 3SM -RA BR OVC015
     FM271900 34006KT P6SM BKN035=



000
FTUS42 KRAH 270542
TAFINT
TAF
KINT 270542Z 2706/2806 23010KT P6SM FEW045 BKN250
      TEMPO 2706/2708 32012G18KT 3SM -SHRA BKN015 OVC040
     FM270800 36012G18KT 5SM -RA OVC035
      TEMPO 2712/2714 3SM -RA BR OVC015
     FM271900 34006KT P6SM BKN035=



000
FTUS42 KRAH 270542
TAFRWI
TAF
KRWI 270542Z 2706/2806 23010KT P6SM FEW045 BKN250
      TEMPO 2707/2709 34012G18KT 3SM -SHRA BKN015 OVC040
     FM270900 03012G20KT 5SM -RA OVC035
      TEMPO 2710/2714 3SM -RA BR OVC012
     FM271900 03012KT P6SM BKN015 OVC040=



000
FTUS42 KRAH 270542
TAFRDU
TAF
KRDU 270542Z 2706/2806 23010KT P6SM FEW045 BKN250
      TEMPO 2707/2709 34012G18KT 3SM -SHRA BKN015 OVC040
     FM270900 03012G20KT 5SM -RA OVC035
      TEMPO 2710/2714 3SM -RA BR OVC012
     FM271900 03012KT P6SM BKN015 OVC040=



000
FTUS42 KRAH 270542
TAFFAY
TAF
KFAY 270542Z 2706/2806 23010KT P6SM FEW045 BKN250
      TEMPO 2709/2711 34012G18KT 3SM -SHRA BKN015 OVC040
     FM271100 03012G20KT 5SM -RA OVC035
      TEMPO 2712/2716 3SM -RA BR OVC012
     FM272100 03012KT P6SM BKN015 OVC040=



000
FTUS42 KRAH 270213 AAA
TAFGSO
TAF AMD
KGSO 270213Z 2702/2724 21010KT P6SM FEW045 BKN250
     FM270600 31009G18KT P6SM SCT025 OVC040
      TEMPO 2706/2709 3SM -SHRA BKN018 OVC040
     FM270900 35009G18KT 5SM -RA BKN025 OVC040
      TEMPO 2711/2714 2SM -RA BR SCT007 BKN012 OVC040
     FM272000 34006KT P6SM SCT030 BKN150=



000
FTUS42 KRAH 270213 AAA
TAFINT
TAF AMD
KINT 270213Z 2702/2724 21010KT P6SM FEW045 BKN250
     FM270500 31009G18KT P6SM SCT025 OVC040
      TEMPO 2705/2708 3SM -SHRA BKN018 OVC040
     FM270900 35009G18KT 5SM -RA BKN025 OVC040
      TEMPO 2711/2714 2SM -RA BR SCT007 BKN012 OVC040
     FM272000 34006KT P6SM SCT030 BKN150=



000
FTUS42 KRAH 270213 AAA
TAFRDU
TAF AMD
KRDU 270213Z 2702/2724 21009KT P6SM FEW045 BKN250
     FM270800 31009G18KT P6SM SCT025 OVC040
      TEMPO 2708/2710 3SM -SHRA SCT007 OVC012
     FM271000 36010G18KT 5SM -RA BKN015 OVC040
      TEMPO 2711/2714 01016G25KT 2SM -RA BR BKN007 OVC012
     FM272200 34006KT P6SM SCT030 BKN150=



000
FTUS42 KRAH 270213 AAA
TAFGSO
TAF AMD
KGSO 270213Z 2702/2724 21010KT P6SM FEW045 BKN250
     FM270600 31009G18KT P6SM SCT025 OVC040
      TEMPO 2706/2709 3SM -SHRA BKN018 OVC040
     FM270900 35009G18KT 5SM -RA BKN025 OVC040
      TEMPO 2711/2714 2SM -RA BR SCT007 BKN012 OVC040
     FM272000 34006KT P6SM SCT030 BKN150=



000
FTUS42 KRAH 270213 AAA
TAFINT
TAF AMD
KINT 270213Z 2702/2724 21010KT P6SM FEW045 BKN250
     FM270500 31009G18KT P6SM SCT025 OVC040
      TEMPO 2705/2708 3SM -SHRA BKN018 OVC040
     FM270900 35009G18KT 5SM -RA BKN025 OVC040
      TEMPO 2711/2714 2SM -RA BR SCT007 BKN012 OVC040
     FM272000 34006KT P6SM SCT030 BKN150=



000
FTUS42 KRAH 270213 AAB
TAFFAY
TAF AMD
KFAY 270213Z 2702/2724 19007KT P6SM FEW045 BKN250
     FM271100 31009G18KT P6SM SCT025 OVC040
      TEMPO 2711/2713 3SM -SHRA SCT009 BKN015 OVC030
     FM271300 01012G24KT 5SM -RA BKN012 OVC040
      TEMPO 2713/2716 01018G28KT 2SM -RA BR BKN007 OVC012
     FM272200 34006KT P6SM SCT030 BKN150=



000
FTUS42 KRAH 270213 AAA
TAFRDU
TAF AMD
KRDU 270213Z 2702/2724 21009KT P6SM FEW045 BKN250
     FM270800 31009G18KT P6SM SCT025 OVC040
      TEMPO 2708/2710 3SM -SHRA SCT007 OVC012
     FM271000 36010G18KT 5SM -RA BKN015 OVC040
      TEMPO 2711/2714 01016G25KT 2SM -RA BR BKN007 OVC012
     FM272200 34006KT P6SM SCT030 BKN150=



000
FTUS42 KRAH 270213 AAB
TAFRWI
TAF AMD
KRWI 270213Z 2702/2724 19008KT P6SM FEW045 BKN250
     FM270900 31009G18KT P6SM SCT025 OVC040
      TEMPO 2709/2712 34015G25KT 3SM -SHRA BKN020
     FM271200 36011G18KT 5SM -RA OVC012
      TEMPO 2712/2714 01018G28KT 2SM -RA BR BKN007 OVC012
     FM272200 34006KT P6SM SCT020 BKN035 BKN150=



000
FTUS42 KRAH 270213 AAB
TAFRWI
TAF AMD
KRWI 270213Z 2702/2724 19008KT P6SM FEW045 BKN250
     FM270900 31009G18KT P6SM SCT025 OVC040
      TEMPO 2709/2712 34015G25KT 3SM -SHRA BKN020
     FM271200 36011G18KT 5SM -RA OVC012
      TEMPO 2712/2714 01018G28KT 2SM -RA BR BKN007 OVC012
     FM272200 34006KT P6SM SCT020 BKN035 BKN150=



000
FTUS42 KRAH 270213 AAB
TAFFAY
TAF AMD
KFAY 270213Z 2702/2724 19007KT P6SM FEW045 BKN250
     FM271100 31009G18KT P6SM SCT025 OVC040
      TEMPO 2711/2713 3SM -SHRA SCT009 BKN015 OVC030
     FM271300 01012G24KT 5SM -RA BKN012 OVC040
      TEMPO 2713/2716 01018G28KT 2SM -RA BR BKN007 OVC012
     FM272200 34006KT P6SM SCT030 BKN150=



000
FTUS42 KRAH 270013 AAA
TAFFAY
TAF AMD
KFAY 270013Z 2700/2724 19007KT P6SM FEW045 BKN250
     FM270900 31009G18KT P6SM SCT025 OVC040
      TEMPO 2709/2712 3SM -SHRA SCT009 BKN015 OVC030
     FM271300 01012G24KT 5SM -RA BKN012 OVC040
      TEMPO 2713/2716 01018G28KT 2SM -RA BR BKN007 OVC012
     FM272200 34006KT P6SM SCT030 BKN150=



000
FTUS42 KRAH 270013 AAA
TAFFAY
TAF AMD
KFAY 270013Z 2700/2724 19007KT P6SM FEW045 BKN250
     FM270900 31009G18KT P6SM SCT025 OVC040
      TEMPO 2709/2712 3SM -SHRA SCT009 BKN015 OVC030
     FM271300 01012G24KT 5SM -RA BKN012 OVC040
      TEMPO 2713/2716 01018G28KT 2SM -RA BR BKN007 OVC012
     FM272200 34006KT P6SM SCT030 BKN150=



000
FTUS42 KRAH 270013 AAA
TAFFAY
TAF AMD
KFAY 270013Z 2700/2724 19007KT P6SM FEW045 BKN250
     FM270900 31009G18KT P6SM SCT025 OVC040
      TEMPO 2709/2712 3SM -SHRA SCT009 BKN015 OVC030
     FM271300 01012G24KT 5SM -RA BKN012 OVC040
      TEMPO 2713/2716 01018G28KT 2SM -RA BR BKN007 OVC012
     FM272200 34006KT P6SM SCT030 BKN150=



000
FTUS42 KRAH 270010 AAA
TAFRWI
TAF AMD
KRWI 270010Z 2700/2724 19008KT P6SM FEW045 BKN250
     FM270800 31009G18KT P6SM SCT025 OVC040
      TEMPO 2708/2711 34015G25KT 3SM -SHRA BKN020
     FM271100 36011G18KT 5SM -RA OVC012
      TEMPO 2711/2714 01018G28KT 2SM -RA BR BKN007 OVC012
     FM272200 34006KT P6SM SCT020 BKN035 BKN150=



000
FTUS42 KRAH 270010 AAA
TAFRWI
TAF AMD
KRWI 270010Z 2700/2724 19008KT P6SM FEW045 BKN250
     FM270800 31009G18KT P6SM SCT025 OVC040
      TEMPO 2708/2711 34015G25KT 3SM -SHRA BKN020
     FM271100 36011G18KT 5SM -RA OVC012
      TEMPO 2711/2714 01018G28KT 2SM -RA BR BKN007 OVC012
     FM272200 34006KT P6SM SCT020 BKN035 BKN150=



000
FTUS42 KRAH 270010 AAA
TAFRWI
TAF AMD
KRWI 270010Z 2700/2724 19008KT P6SM FEW045 BKN250
     FM270800 31009G18KT P6SM SCT025 OVC040
      TEMPO 2708/2711 34015G25KT 3SM -SHRA BKN020
     FM271100 36011G18KT 5SM -RA OVC012
      TEMPO 2711/2714 01018G28KT 2SM -RA BR BKN007 OVC012
     FM272200 34006KT P6SM SCT020 BKN035 BKN150=



000
FTUS42 KRAH 270010 AAA
TAFRWI
TAF AMD
KRWI 270010Z 2700/2724 19008KT P6SM FEW045 BKN250
     FM270800 31009G18KT P6SM SCT025 OVC040
      TEMPO 2708/2711 34015G25KT 3SM -SHRA BKN020
     FM271100 36011G18KT 5SM -RA OVC012
      TEMPO 2711/2714 01018G28KT 2SM -RA BR BKN007 OVC012
     FM272200 34006KT P6SM SCT020 BKN035 BKN150=



000
FTUS42 KRAH 270003 CCA
TAFRDU
TAF COR
KRDU 270003Z 2700/2724 21009KT P6SM FEW045 BKN250
     FM270600 31009G18KT P6SM SCT025 OVC040
      TEMPO 2706/2709 3SM -SHRA SCT007 OVC012
     FM270900 36010G18KT 5SM -RA BKN015 OVC040
      TEMPO 2711/2714 01016G25KT 2SM -RA BR BKN007 OVC012
     FM272200 34006KT P6SM SCT030 BKN150=



000
FTUS42 KRAH 270003 CCA
TAFRDU
TAF COR
KRDU 270003Z 2700/2724 21009KT P6SM FEW045 BKN250
     FM270600 31009G18KT P6SM SCT025 OVC040
      TEMPO 2706/2709 3SM -SHRA SCT007 OVC012
     FM270900 36010G18KT 5SM -RA BKN015 OVC040
      TEMPO 2711/2714 01016G25KT 2SM -RA BR BKN007 OVC012
     FM272200 34006KT P6SM SCT030 BKN150=



000
FTUS42 KRAH 270003 CCA
TAFRDU
TAF COR
KRDU 270003Z 2700/2724 21009KT P6SM FEW045 BKN250
     FM270600 31009G18KT P6SM SCT025 OVC040
      TEMPO 2706/2709 3SM -SHRA SCT007 OVC012
     FM270900 36010G18KT 5SM -RA BKN015 OVC040
      TEMPO 2711/2714 01016G25KT 2SM -RA BR BKN007 OVC012
     FM272200 34006KT P6SM SCT030 BKN150=



000
FTUS42 KRAH 270003 CCA
TAFRDU
TAF COR
KRDU 270003Z 2700/2724 21009KT P6SM FEW045 BKN250
     FM270600 31009G18KT P6SM SCT025 OVC040
      TEMPO 2706/2709 3SM -SHRA SCT007 OVC012
     FM270900 36010G18KT 5SM -RA BKN015 OVC040
      TEMPO 2711/2714 01016G25KT 2SM -RA BR BKN007 OVC012
     FM272200 34006KT P6SM SCT030 BKN150=



000
FTUS42 KRAH 262355 CCA
TAFGSO
TAF COR
KGSO 262355Z 2700/2724 21010KT P6SM FEW045 BKN250
     FM270400 31009G18KT P6SM SCT025 OVC040
      TEMPO 2704/2707 3SM -SHRA BKN018 OVC040
     FM270800 35009G18KT 5SM -RA BKN025 OVC040
      TEMPO 2711/2714 2SM -RA BR SCT007 BKN012 OVC040
     FM272000 34006KT P6SM SCT030 BKN150=



000
FTUS42 KRAH 262355 CCA
TAFGSO
TAF COR
KGSO 262355Z 2700/2724 21010KT P6SM FEW045 BKN250
     FM270400 31009G18KT P6SM SCT025 OVC040
      TEMPO 2704/2707 3SM -SHRA BKN018 OVC040
     FM270800 35009G18KT 5SM -RA BKN025 OVC040
      TEMPO 2711/2714 2SM -RA BR SCT007 BKN012 OVC040
     FM272000 34006KT P6SM SCT030 BKN150=



000
FTUS42 KRAH 262355 CCA
TAFINT
TAF COR
KINT 262355Z 2700/2724 21010KT P6SM FEW045 BKN250
     FM270300 31009G18KT P6SM SCT025 OVC040
      TEMPO 2703/2706 3SM -SHRA BKN018 OVC040
     FM270800 35009G18KT 5SM -RA BKN025 OVC040
      TEMPO 2711/2714 2SM -RA BR SCT007 BKN012 OVC040
     FM272000 34006KT P6SM SCT030 BKN150=



000
FTUS42 KRAH 262355 CCA
TAFINT
TAF COR
KINT 262355Z 2700/2724 21010KT P6SM FEW045 BKN250
     FM270300 31009G18KT P6SM SCT025 OVC040
      TEMPO 2703/2706 3SM -SHRA BKN018 OVC040
     FM270800 35009G18KT 5SM -RA BKN025 OVC040
      TEMPO 2711/2714 2SM -RA BR SCT007 BKN012 OVC040
     FM272000 34006KT P6SM SCT030 BKN150=



000
FTUS42 KRAH 262355 CCA
TAFINT
TAF COR
KINT 262355Z 2700/2724 21010KT P6SM FEW045 BKN250
     FM270300 31009G18KT P6SM SCT025 OVC040
      TEMPO 2703/2706 3SM -SHRA BKN018 OVC040
     FM270800 35009G18KT 5SM -RA BKN025 OVC040
      TEMPO 2711/2714 2SM -RA BR SCT007 BKN012 OVC040
     FM272000 34006KT P6SM SCT030 BKN150=



000
FTUS42 KRAH 262355 CCA
TAFGSO
TAF COR
KGSO 262355Z 2700/2724 21010KT P6SM FEW045 BKN250
     FM270400 31009G18KT P6SM SCT025 OVC040
      TEMPO 2704/2707 3SM -SHRA BKN018 OVC040
     FM270800 35009G18KT 5SM -RA BKN025 OVC040
      TEMPO 2711/2714 2SM -RA BR SCT007 BKN012 OVC040
     FM272000 34006KT P6SM SCT030 BKN150=



000
FTUS42 KRAH 262355 CCA
TAFGSO
TAF COR
KGSO 262355Z 2700/2724 21010KT P6SM FEW045 BKN250
     FM270400 31009G18KT P6SM SCT025 OVC040
      TEMPO 2704/2707 3SM -SHRA BKN018 OVC040
     FM270800 35009G18KT 5SM -RA BKN025 OVC040
      TEMPO 2711/2714 2SM -RA BR SCT007 BKN012 OVC040
     FM272000 34006KT P6SM SCT030 BKN150=



000
FTUS42 KRAH 262355 CCA
TAFINT
TAF COR
KINT 262355Z 2700/2724 21010KT P6SM FEW045 BKN250
     FM270300 31009G18KT P6SM SCT025 OVC040
      TEMPO 2703/2706 3SM -SHRA BKN018 OVC040
     FM270800 35009G18KT 5SM -RA BKN025 OVC040
      TEMPO 2711/2714 2SM -RA BR SCT007 BKN012 OVC040
     FM272000 34006KT P6SM SCT030 BKN150=



000
FTUS42 KRAH 262340
TAFRWI
TAF
KRWI 262340Z 2700/2724 21009KT P6SM FEW045 BKN250
     FM271000 22007KT 4SM -SHRA BR OVC004
     FM271300 01012G24KT 2SM -RA BR OVC009
     FM271700 02010KT 6SM -RA BR BKN018=



000
FTUS42 KRAH 262340
TAFFAY
TAF
KFAY 262340Z 2700/2724 20010KT P6SM FEW045 BKN250
     FM270900 20009KT 6SM BR OVC003
     FM271200 20008KT 2SM -SHRA BR OVC008
     FM271400 34015G25KT 5SM -RA BR OVC008
     FM271700 02010KT 6SM -RA BR BKN018=



000
FTUS42 KRAH 262340
TAFGSO
TAF
KGSO 262340Z 2700/2724 21010KT P6SM FEW045 BKN250
      TEMPO 2703/2706 5SM -SHRA BKN025
     FM270800 35012G22KT 5SM -SHRA BR OVC025
     FM271100 36010KT 2SM -RA BR OVC006=



000
FTUS42 KRAH 262340
TAFGSO
TAF
KGSO 262340Z 2700/2724 21010KT P6SM FEW045 BKN250
      TEMPO 2703/2706 5SM -SHRA BKN025
     FM270800 35012G22KT 5SM -SHRA BR OVC025
     FM271100 36010KT 2SM -RA BR OVC006=



000
FTUS42 KRAH 262340
TAFINT
TAF
KINT 262340Z 2700/2724 21010KT P6SM FEW045 BKN250
     FM270300 31009G18KT P6SM OVC040
      TEMPO 2703/2706 5SM -SHRA BKN018 OVC040
     FM270800 35012G22KT 5SM -SHRA BR BKN022
     FM271200 36010KT 6SM -RA BR BKN010 OVC025=



000
FTUS42 KRAH 262340
TAFRDU
TAF
KRDU 262340Z 2700/2724 22011KT P6SM FEW045 BKN250
     FM270900 31007KT 5SM -SHRA BR OVC015
     FM271200 36012G22KT 5SM -RA BR OVC006
     FM271700 02010KT 6SM -RA BR BKN018=



000
FTUS42 KRAH 262340
TAFRWI
TAF
KRWI 262340Z 2700/2724 21009KT P6SM FEW045 BKN250
     FM271000 22007KT 4SM -SHRA BR OVC004
     FM271300 01012G24KT 2SM -RA BR OVC009
     FM271700 02010KT 6SM -RA BR BKN018=



000
FTUS42 KRAH 262340
TAFINT
TAF
KINT 262340Z 2700/2724 21010KT P6SM FEW045 BKN250
     FM270300 31009G18KT P6SM OVC040
      TEMPO 2703/2706 5SM -SHRA BKN018 OVC040
     FM270800 35012G22KT 5SM -SHRA BR BKN022
     FM271200 36010KT 6SM -RA BR BKN010 OVC025=



000
FTUS42 KRAH 262340
TAFRDU
TAF
KRDU 262340Z 2700/2724 22011KT P6SM FEW045 BKN250
     FM270900 31007KT 5SM -SHRA BR OVC015
     FM271200 36012G22KT 5SM -RA BR OVC006
     FM271700 02010KT 6SM -RA BR BKN018=



000
FTUS42 KRAH 262340
TAFFAY
TAF
KFAY 262340Z 2700/2724 20010KT P6SM FEW045 BKN250
     FM270900 20009KT 6SM BR OVC003
     FM271200 20008KT 2SM -SHRA BR OVC008
     FM271400 34015G25KT 5SM -RA BR OVC008
     FM271700 02010KT 6SM -RA BR BKN018=



000
FTUS42 KRAH 262340
TAFFAY
TAF
KFAY 262340Z 2700/2724 20010KT P6SM FEW045 BKN250
     FM270900 20009KT 6SM BR OVC003
     FM271200 20008KT 2SM -SHRA BR OVC008
     FM271400 34015G25KT 5SM -RA BR OVC008
     FM271700 02010KT 6SM -RA BR BKN018=



000
FTUS42 KRAH 262340
TAFRWI
TAF
KRWI 262340Z 2700/2724 21009KT P6SM FEW045 BKN250
     FM271000 22007KT 4SM -SHRA BR OVC004
     FM271300 01012G24KT 2SM -RA BR OVC009
     FM271700 02010KT 6SM -RA BR BKN018=



000
FTUS42 KRAH 262340
TAFRDU
TAF
KRDU 262340Z 2700/2724 22011KT P6SM FEW045 BKN250
     FM270900 31007KT 5SM -SHRA BR OVC015
     FM271200 36012G22KT 5SM -RA BR OVC006
     FM271700 02010KT 6SM -RA BR BKN018=



000
FTUS42 KRAH 262340
TAFRWI
TAF
KRWI 262340Z 2700/2724 21009KT P6SM FEW045 BKN250
     FM271000 22007KT 4SM -SHRA BR OVC004
     FM271300 01012G24KT 2SM -RA BR OVC009
     FM271700 02010KT 6SM -RA BR BKN018=



000
FTUS42 KRAH 262340
TAFINT
TAF
KINT 262340Z 2700/2724 21010KT P6SM FEW045 BKN250
     FM270300 31009G18KT P6SM OVC040
      TEMPO 2703/2706 5SM -SHRA BKN018 OVC040
     FM270800 35012G22KT 5SM -SHRA BR BKN022
     FM271200 36010KT 6SM -RA BR BKN010 OVC025=



000
FTUS42 KRAH 262340
TAFGSO
TAF
KGSO 262340Z 2700/2724 21010KT P6SM FEW045 BKN250
      TEMPO 2703/2706 5SM -SHRA BKN025
     FM270800 35012G22KT 5SM -SHRA BR OVC025
     FM271100 36010KT 2SM -RA BR OVC006=



000
FTUS42 KRAH 262340
TAFGSO
TAF
KGSO 262340Z 2700/2724 21010KT P6SM FEW045 BKN250
      TEMPO 2703/2706 5SM -SHRA BKN025
     FM270800 35012G22KT 5SM -SHRA BR OVC025
     FM271100 36010KT 2SM -RA BR OVC006=



000
FTUS42 KRAH 262340
TAFRDU
TAF
KRDU 262340Z 2700/2724 22011KT P6SM FEW045 BKN250
     FM270900 31007KT 5SM -SHRA BR OVC015
     FM271200 36012G22KT 5SM -RA BR OVC006
     FM271700 02010KT 6SM -RA BR BKN018=



000
FTUS42 KRAH 262340
TAFFAY
TAF
KFAY 262340Z 2700/2724 20010KT P6SM FEW045 BKN250
     FM270900 20009KT 6SM BR OVC003
     FM271200 20008KT 2SM -SHRA BR OVC008
     FM271400 34015G25KT 5SM -RA BR OVC008
     FM271700 02010KT 6SM -RA BR BKN018=



000
FTUS42 KRAH 262340
TAFINT
TAF
KINT 262340Z 2700/2724 21010KT P6SM FEW045 BKN250
     FM270300 31009G18KT P6SM OVC040
      TEMPO 2703/2706 5SM -SHRA BKN018 OVC040
     FM270800 35012G22KT 5SM -SHRA BR BKN022
     FM271200 36010KT 6SM -RA BR BKN010 OVC025=



000
FTUS42 KRAH 262311 AAA
TAFRDU
TAF AMD
KRDU 262311Z 2623/2718 22011KT P6SM FEW045 BKN250
     FM270900 31007KT 5SM -SHRA BR OVC015
     FM271100 36012G22KT 2SM -RA BR OVC004=



000
FTUS42 KRAH 262311 AAB
TAFGSO
TAF AMD
KGSO 262311Z 2623/2718 21010KT P6SM FEW045 BKN250
      TEMPO 2703/2706 5SM -SHRA BKN025
     FM270800 35012G22KT 5SM -SHRA BR OVC025
     FM271100 36010KT 2SM -RA BR OVC006=



000
FTUS42 KRAH 262311 AAA
TAFRWI
TAF AMD
KRWI 262311Z 2623/2718 21009KT P6SM FEW045 BKN250
     FM271000 22007KT 4SM -SHRA BR OVC004
     FM271300 01012G24KT 2SM -RA BR OVC006=



000
FTUS42 KRAH 262311 AAA
TAFFAY
TAF AMD
KFAY 262311Z 2623/2718 20010KT P6SM FEW045 BKN250
     FM270900 20009KT 6SM BR OVC003
     FM271200 20008KT 2SM -SHRA BR OVC005
     FM271400 34015G25KT 5SM -RA BR OVC005=



000
FTUS42 KRAH 262311 AAC
TAFINT
TAF AMD
KINT 262311Z 2623/2718 21010KT P6SM FEW045 BKN250
      TEMPO 2703/2706 5SM -SHRA BKN025
     FM270800 35012G22KT 5SM -SHRA BR OVC025
     FM271100 36010KT 2SM -RA BR OVC006=



000
FTUS42 KRAH 261841 AAB
TAFINT
TAF AMD
KINT 261841Z 2619/2718 21010KT P6SM BKN025
     FM261930 22012G22KT P6SM SCT030
     FM270300 23008KT P6SM OVC045
      TEMPO 2703/2706 5SM -SHRA BKN025
     FM270800 35012G22KT 5SM -SHRA BR OVC025
     FM271100 36010KT 2SM -RA BR OVC006=



000
FTUS42 KRAH 261841 AAB
TAFINT
TAF AMD
KINT 261841Z 2619/2718 21010KT P6SM BKN025
     FM261930 22012G22KT P6SM SCT030
     FM270300 23008KT P6SM OVC045
      TEMPO 2703/2706 5SM -SHRA BKN025
     FM270800 35012G22KT 5SM -SHRA BR OVC025
     FM271100 36010KT 2SM -RA BR OVC006=



000
FTUS42 KRAH 261840 AAA
TAFGSO
TAF AMD
KGSO 261840Z 2619/2718 23010KT P6SM BKN025
     FM261930 22012G22KT P6SM SCT030
     FM270300 23008KT P6SM OVC045
      TEMPO 2703/2706 5SM -SHRA BKN025
     FM270800 35012G22KT 5SM -SHRA BR OVC025
     FM271100 36010KT 2SM -RA BR OVC006=



000
FTUS42 KRAH 261840 AAA
TAFGSO
TAF AMD
KGSO 261840Z 2619/2718 23010KT P6SM BKN025
     FM261930 22012G22KT P6SM SCT030
     FM270300 23008KT P6SM OVC045
      TEMPO 2703/2706 5SM -SHRA BKN025
     FM270800 35012G22KT 5SM -SHRA BR OVC025
     FM271100 36010KT 2SM -RA BR OVC006=



000
FTUS42 KRAH 261840 AAA
TAFGSO
TAF AMD
KGSO 261840Z 2619/2718 23010KT P6SM BKN025
     FM261930 22012G22KT P6SM SCT030
     FM270300 23008KT P6SM OVC045
      TEMPO 2703/2706 5SM -SHRA BKN025
     FM270800 35012G22KT 5SM -SHRA BR OVC025
     FM271100 36010KT 2SM -RA BR OVC006=



000
FTUS42 KRAH 261840 AAA
TAFGSO
TAF AMD
KGSO 261840Z 2619/2718 23010KT P6SM BKN025
     FM261930 22012G22KT P6SM SCT030
     FM270300 23008KT P6SM OVC045
      TEMPO 2703/2706 5SM -SHRA BKN025
     FM270800 35012G22KT 5SM -SHRA BR OVC025
     FM271100 36010KT 2SM -RA BR OVC006=



000
FTUS42 KRAH 261747 AAA
TAFINT
TAF AMD
KINT 261747Z 2618/2718 22010G20KT P6SM BKN011
     FM261930 22012G22KT P6SM SCT026
     FM270300 23008KT P6SM OVC045
      TEMPO 2703/2706 5SM -SHRA BKN025
     FM270800 35012G22KT 5SM -SHRA BR OVC025
     FM271100 36010KT 2SM -RA BR OVC006=



000
FTUS42 KRAH 261747 AAA
TAFINT
TAF AMD
KINT 261747Z 2618/2718 22010G20KT P6SM BKN011
     FM261930 22012G22KT P6SM SCT026
     FM270300 23008KT P6SM OVC045
      TEMPO 2703/2706 5SM -SHRA BKN025
     FM270800 35012G22KT 5SM -SHRA BR OVC025
     FM271100 36010KT 2SM -RA BR OVC006=



000
FTUS42 KRAH 261738
TAFRDU
TAF
KRDU 261738Z 2618/2718 22010G18KT P6SM SCT020 BKN045
     FM262000 21012G22KT P6SM SCT045
     FM270900 31007KT 5SM -SHRA BR OVC015
     FM271100 36012G22KT 2SM -RA BR OVC004=



000
FTUS42 KRAH 261738
TAFRWI
TAF
KRWI 261738Z 2618/2718 21009KT P6SM SCT020 BKN045
     FM262000 21012G20KT P6SM SCT030 SCT250
     FM270400 20009KT P6SM BKN050
     FM271000 22007KT 4SM -SHRA BR OVC004
     FM271300 01012G24KT 2SM -RA BR OVC006=



000
FTUS42 KRAH 261738
TAFGSO
TAF
KGSO 261738Z 2618/2718 22010G20KT P6SM SCT040 BKN250
     FM270300 23008KT P6SM OVC045
      TEMPO 2703/2706 5SM -SHRA BKN025
     FM270800 35012G22KT 5SM -SHRA BR OVC025
     FM271100 36010KT 2SM -RA BR OVC006=



000
FTUS42 KRAH 261738
TAFFAY
TAF
KFAY 261738Z 2618/2718 22010KT P6SM SCT020 BKN050
     FM262000 20012G24KT P6SM SCT050
     FM270000 20008KT P6SM SCT050
     FM270900 20009KT 6SM BR OVC003
     FM271200 20008KT 2SM -SHRA BR OVC005
     FM271400 34015G25KT 5SM -RA BR OVC005=



000
FTUS42 KRAH 261738
TAFINT
TAF
KINT 261738Z 2618/2718 22010G20KT P6SM SCT040 BKN250
     FM270300 23008KT P6SM OVC045
      TEMPO 2703/2706 5SM -SHRA BKN025
     FM270800 35012G22KT 5SM -SHRA BR OVC025
     FM271100 36010KT 2SM -RA BR OVC006=



000
FTUS42 KRAH 261738
TAFRDU
TAF
KRDU 261738Z 2618/2718 22010G18KT P6SM SCT020 BKN045
     FM262000 21012G22KT P6SM SCT045
     FM270900 31007KT 5SM -SHRA BR OVC015
     FM271100 36012G22KT 2SM -RA BR OVC004=



000
FTUS42 KRAH 261738
TAFGSO
TAF
KGSO 261738Z 2618/2718 22010G20KT P6SM SCT040 BKN250
     FM270300 23008KT P6SM OVC045
      TEMPO 2703/2706 5SM -SHRA BKN025
     FM270800 35012G22KT 5SM -SHRA BR OVC025
     FM271100 36010KT 2SM -RA BR OVC006=



000
FTUS42 KRAH 261738
TAFRWI
TAF
KRWI 261738Z 2618/2718 21009KT P6SM SCT020 BKN045
     FM262000 21012G20KT P6SM SCT030 SCT250
     FM270400 20009KT P6SM BKN050
     FM271000 22007KT 4SM -SHRA BR OVC004
     FM271300 01012G24KT 2SM -RA BR OVC006=



000
FTUS42 KRAH 261738
TAFFAY
TAF
KFAY 261738Z 2618/2718 22010KT P6SM SCT020 BKN050
     FM262000 20012G24KT P6SM SCT050
     FM270000 20008KT P6SM SCT050
     FM270900 20009KT 6SM BR OVC003
     FM271200 20008KT 2SM -SHRA BR OVC005
     FM271400 34015G25KT 5SM -RA BR OVC005=



000
FTUS42 KRAH 261738
TAFINT
TAF
KINT 261738Z 2618/2718 22010G20KT P6SM SCT040 BKN250
     FM270300 23008KT P6SM OVC045
      TEMPO 2703/2706 5SM -SHRA BKN025
     FM270800 35012G22KT 5SM -SHRA BR OVC025
     FM271100 36010KT 2SM -RA BR OVC006=



000
FTUS42 KRAH 261738
TAFINT
TAF
KINT 261738Z 2618/2718 22010G20KT P6SM SCT040 BKN250
     FM270300 23008KT P6SM OVC045
      TEMPO 2703/2706 5SM -SHRA BKN025
     FM270800 35012G22KT 5SM -SHRA BR OVC025
     FM271100 36010KT 2SM -RA BR OVC006=



000
FTUS42 KRAH 261738
TAFGSO
TAF
KGSO 261738Z 2618/2718 22010G20KT P6SM SCT040 BKN250
     FM270300 23008KT P6SM OVC045
      TEMPO 2703/2706 5SM -SHRA BKN025
     FM270800 35012G22KT 5SM -SHRA BR OVC025
     FM271100 36010KT 2SM -RA BR OVC006=



000
FTUS42 KRAH 261738
TAFRWI
TAF
KRWI 261738Z 2618/2718 21009KT P6SM SCT020 BKN045
     FM262000 21012G20KT P6SM SCT030 SCT250
     FM270400 20009KT P6SM BKN050
     FM271000 22007KT 4SM -SHRA BR OVC004
     FM271300 01012G24KT 2SM -RA BR OVC006=



000
FTUS42 KRAH 261738
TAFFAY
TAF
KFAY 261738Z 2618/2718 22010KT P6SM SCT020 BKN050
     FM262000 20012G24KT P6SM SCT050
     FM270000 20008KT P6SM SCT050
     FM270900 20009KT 6SM BR OVC003
     FM271200 20008KT 2SM -SHRA BR OVC005
     FM271400 34015G25KT 5SM -RA BR OVC005=



000
FTUS42 KRAH 261738
TAFRDU
TAF
KRDU 261738Z 2618/2718 22010G18KT P6SM SCT020 BKN045
     FM262000 21012G22KT P6SM SCT045
     FM270900 31007KT 5SM -SHRA BR OVC015
     FM271100 36012G22KT 2SM -RA BR OVC004=



000
FTUS42 KRAH 261738
TAFRDU
TAF
KRDU 261738Z 2618/2718 22010G18KT P6SM SCT020 BKN045
     FM262000 21012G22KT P6SM SCT045
     FM270900 31007KT 5SM -SHRA BR OVC015
     FM271100 36012G22KT 2SM -RA BR OVC004=



000
FTUS42 KRAH 261738
TAFGSO
TAF
KGSO 261738Z 2618/2718 22010G20KT P6SM SCT040 BKN250
     FM270300 23008KT P6SM OVC045
      TEMPO 2703/2706 5SM -SHRA BKN025
     FM270800 35012G22KT 5SM -SHRA BR OVC025
     FM271100 36010KT 2SM -RA BR OVC006=



000
FTUS42 KRAH 261738
TAFRWI
TAF
KRWI 261738Z 2618/2718 21009KT P6SM SCT020 BKN045
     FM262000 21012G20KT P6SM SCT030 SCT250
     FM270400 20009KT P6SM BKN050
     FM271000 22007KT 4SM -SHRA BR OVC004
     FM271300 01012G24KT 2SM -RA BR OVC006=



000
FTUS42 KRAH 261738
TAFFAY
TAF
KFAY 261738Z 2618/2718 22010KT P6SM SCT020 BKN050
     FM262000 20012G24KT P6SM SCT050
     FM270000 20008KT P6SM SCT050
     FM270900 20009KT 6SM BR OVC003
     FM271200 20008KT 2SM -SHRA BR OVC005
     FM271400 34015G25KT 5SM -RA BR OVC005=



000
FTUS42 KRAH 261738
TAFINT
TAF
KINT 261738Z 2618/2718 22010G20KT P6SM SCT040 BKN250
     FM270300 23008KT P6SM OVC045
      TEMPO 2703/2706 5SM -SHRA BKN025
     FM270800 35012G22KT 5SM -SHRA BR OVC025
     FM271100 36010KT 2SM -RA BR OVC006=



000
FTUS42 KRAH 261702 AAC
TAFGSO
TAF AMD
KGSO 261702Z 2617/2712 22009G19KT P6SM OVC025
     FM261900 23012G24KT P6SM SCT030
     FM262300 23008KT P6SM SCT035
     FM270700 36012G18KT 5SM -RA OVC012=



000
FTUS42 KRAH 261702 AAC
TAFGSO
TAF AMD
KGSO 261702Z 2617/2712 22009G19KT P6SM OVC025
     FM261900 23012G24KT P6SM SCT030
     FM262300 23008KT P6SM SCT035
     FM270700 36012G18KT 5SM -RA OVC012=



000
FTUS42 KRAH 261659 AAC
TAFINT
TAF AMD
KINT 261659Z 2617/2712 22009KT P6SM OVC009
     FM261730 22010KT P6SM BKN015
     FM261900 23012G20KT P6SM SCT025
     FM262300 23008KT P6SM SCT035
     FM270700 36012G18KT 5SM -RA OVC012=



000
FTUS42 KRAH 261659 AAC
TAFINT
TAF AMD
KINT 261659Z 2617/2712 22009KT P6SM OVC009
     FM261730 22010KT P6SM BKN015
     FM261900 23012G20KT P6SM SCT025
     FM262300 23008KT P6SM SCT035
     FM270700 36012G18KT 5SM -RA OVC012=



000
FTUS42 KRAH 261659 AAC
TAFINT
TAF AMD
KINT 261659Z 2617/2712 22009KT P6SM OVC009
     FM261730 22010KT P6SM BKN015
     FM261900 23012G20KT P6SM SCT025
     FM262300 23008KT P6SM SCT035
     FM270700 36012G18KT 5SM -RA OVC012=



000
FTUS42 KRAH 261659 AAC
TAFINT
TAF AMD
KINT 261659Z 2617/2712 22009KT P6SM OVC009
     FM261730 22010KT P6SM BKN015
     FM261900 23012G20KT P6SM SCT025
     FM262300 23008KT P6SM SCT035
     FM270700 36012G18KT 5SM -RA OVC012=



000
FTUS42 KRAH 261606 AAE
TAFRWI
TAF AMD
KRWI 261606Z 2616/2712 18010KT P6SM SCT020 BKN045
     FM261830 21013G25KT P6SM SCT035
     FM270000 22012KT P6SM SCT040
     FM271000 36012G20KT 5SM -RA OVC010=



000
FTUS42 KRAH 261604 AAC
TAFFAY
TAF AMD
KFAY 261604Z 2616/2712 23012G22KT P6SM SCT020 BKN050
     FM261800 22013G25KT P6SM SCT035
     FM270000 22012KT P6SM SCT040
     FM271000 36012G20KT 5SM -RA OVC010=



000
FTUS42 KRAH 261604 AAC
TAFFAY
TAF AMD
KFAY 261604Z 2616/2712 23012G22KT P6SM SCT020 BKN050
     FM261800 22013G25KT P6SM SCT035
     FM270000 22012KT P6SM SCT040
     FM271000 36012G20KT 5SM -RA OVC010=



000
FTUS42 KRAH 261603 AAC
TAFRDU
TAF AMD
KRDU 261603Z 2616/2712 22010KT P6SM SCT020 BKN045
     FM261800 21012G24KT P6SM SCT045
     FM270000 22010KT P6SM SCT040
     FM271000 36012G20KT 5SM -RA OVC010=



000
FTUS42 KRAH 261603 AAC
TAFRDU
TAF AMD
KRDU 261603Z 2616/2712 22010KT P6SM SCT020 BKN045
     FM261800 21012G24KT P6SM SCT045
     FM270000 22010KT P6SM SCT040
     FM271000 36012G20KT 5SM -RA OVC010=



000
FTUS42 KRAH 261603 AAC
TAFRDU
TAF AMD
KRDU 261603Z 2616/2712 22010KT P6SM SCT020 BKN045
     FM261800 21012G24KT P6SM SCT045
     FM270000 22010KT P6SM SCT040
     FM271000 36012G20KT 5SM -RA OVC010=



000
FTUS42 KRAH 261603 AAC
TAFRDU
TAF AMD
KRDU 261603Z 2616/2712 22010KT P6SM SCT020 BKN045
     FM261800 21012G24KT P6SM SCT045
     FM270000 22010KT P6SM SCT040
     FM271000 36012G20KT 5SM -RA OVC010=



000
FTUS42 KRAH 261507 CCA
TAFRWI
TAF COR
KRWI 261507Z 2615/2712 18010KT 3SM -SHRA BR SCT010 BKN030
     FM261600 20008G18KT P6SM BKN025
     FM261800 21013G25KT P6SM SCT035
     FM270000 22012KT P6SM SCT040
     FM271000 36012G20KT 5SM -RA OVC010=



000
FTUS42 KRAH 261507 CCA
TAFRWI
TAF COR
KRWI 261507Z 2615/2712 18010KT 3SM -SHRA BR SCT010 BKN030
     FM261600 20008G18KT P6SM BKN025
     FM261800 21013G25KT P6SM SCT035
     FM270000 22012KT P6SM SCT040
     FM271000 36012G20KT 5SM -RA OVC010=



000
FTUS42 KRAH 261507 CCA
TAFRWI
TAF COR
KRWI 261507Z 2615/2712 18010KT 3SM -SHRA BR SCT010 BKN030
     FM261600 20008G18KT P6SM BKN025
     FM261800 21013G25KT P6SM SCT035
     FM270000 22012KT P6SM SCT040
     FM271000 36012G20KT 5SM -RA OVC010=



000
FTUS42 KRAH 261507 CCA
TAFRWI
TAF COR
KRWI 261507Z 2615/2712 18010KT 3SM -SHRA BR SCT010 BKN030
     FM261600 20008G18KT P6SM BKN025
     FM261800 21013G25KT P6SM SCT035
     FM270000 22012KT P6SM SCT040
     FM271000 36012G20KT 5SM -RA OVC010=



000
FTUS42 KRAH 261506 AAD
TAFRWI
TAF AMD
KRWI 261506Z 2615/2712 18010KT 3SM -SHRA BR SCT010 BKN030
     FM261530 20008G18KT P6SM BKN025
     FM261730 21013G25KT P6SM SCT035
     FM270000 22012KT P6SM SCT040
     FM271000 36012G20KT 5SM -RA OVC010=



000
FTUS42 KRAH 261506 AAD
TAFRWI
TAF AMD
KRWI 261506Z 2615/2712 18010KT 3SM -SHRA BR SCT010 BKN030
     FM261530 20008G18KT P6SM BKN025
     FM261730 21013G25KT P6SM SCT035
     FM270000 22012KT P6SM SCT040
     FM271000 36012G20KT 5SM -RA OVC010=



000
FTUS42 KRAH 261505 AAB
TAFRDU
TAF AMD
KRDU 261505Z 2615/2712 22010KT P6SM BKN018 BKN050
     FM261700 21012G22KT P6SM BKN030
     FM261900 22013G22KT P6SM SCT040
     FM270000 22010KT P6SM SCT040
     FM271000 36012G20KT 5SM -RA OVC010=



000
FTUS42 KRAH 261502 AAB
TAFGSO
TAF AMD
KGSO 261502Z 2615/2712 22009G19KT P6SM BKN006 OVC015
     FM261630 22010G20KT P6SM BKN015
     FM261830 23012G24KT P6SM SCT025
     FM262300 23008KT P6SM SCT035
     FM270700 36012G18KT 5SM -RA OVC012=



000
FTUS42 KRAH 261502 AAB
TAFGSO
TAF AMD
KGSO 261502Z 2615/2712 22009G19KT P6SM BKN006 OVC015
     FM261630 22010G20KT P6SM BKN015
     FM261830 23012G24KT P6SM SCT025
     FM262300 23008KT P6SM SCT035
     FM270700 36012G18KT 5SM -RA OVC012=



000
FTUS42 KRAH 261501 AAB
TAFINT
TAF AMD
KINT 261501Z 2615/2712 00000KT 6SM BR OVC005
     FM261630 22010KT P6SM BKN015
     FM261900 23012G20KT P6SM SCT025
     FM262300 23008KT P6SM SCT035
     FM270700 36012G18KT 5SM -RA OVC012=



000
FTUS42 KRAH 261427 AAC
TAFRWI
TAF AMD
KRWI 261427Z 2614/2712 18010KT 3SM -SHRA BR SCT010 BKN030
     FM261530 20008G18KT P6SM BKN025
     FM261730 21013G25KT P6SM SCT035
     FM270000 22012KT P6SM SCT040
     FM271000 36012G20KT 5SM -RA OVC010=



000
FTUS42 KRAH 261427 AAC
TAFRWI
TAF AMD
KRWI 261427Z 2614/2712 18010KT 3SM -SHRA BR SCT010 BKN030
     FM261530 20008G18KT P6SM BKN025
     FM261730 21013G25KT P6SM SCT035
     FM270000 22012KT P6SM SCT040
     FM271000 36012G20KT 5SM -RA OVC010=



000
FTUS42 KRAH 261427 AAC
TAFRWI
TAF AMD
KRWI 261427Z 2614/2712 18010KT 3SM -SHRA BR SCT010 BKN030
     FM261530 20008G18KT P6SM BKN025
     FM261730 21013G25KT P6SM SCT035
     FM270000 22012KT P6SM SCT040
     FM271000 36012G20KT 5SM -RA OVC010=



000
FTUS42 KRAH 261400 AAB
TAFFAY
TAF AMD
KFAY 261400Z 2614/2712 18010KT P6SM OVC018
     FM261530 21012G20KT P6SM BKN025
     FM261800 22013G22KT P6SM SCT035
     FM270000 22012KT P6SM SCT040
     FM271000 36012G20KT 5SM -RA OVC010=



000
FTUS42 KRAH 261400 AAB
TAFFAY
TAF AMD
KFAY 261400Z 2614/2712 18010KT P6SM OVC018
     FM261530 21012G20KT P6SM BKN025
     FM261800 22013G22KT P6SM SCT035
     FM270000 22012KT P6SM SCT040
     FM271000 36012G20KT 5SM -RA OVC010=



000
FTUS42 KRAH 261400 AAB
TAFFAY
TAF AMD
KFAY 261400Z 2614/2712 18010KT P6SM OVC018
     FM261530 21012G20KT P6SM BKN025
     FM261800 22013G22KT P6SM SCT035
     FM270000 22012KT P6SM SCT040
     FM271000 36012G20KT 5SM -RA OVC010=



000
FTUS42 KRAH 261400 AAB
TAFFAY
TAF AMD
KFAY 261400Z 2614/2712 18010KT P6SM OVC018
     FM261530 21012G20KT P6SM BKN025
     FM261800 22013G22KT P6SM SCT035
     FM270000 22012KT P6SM SCT040
     FM271000 36012G20KT 5SM -RA OVC010=



000
FTUS42 KRAH 261307 AAB
TAFRWI
TAF AMD
KRWI 261307Z 2613/2712 18010KT 3SM -SHRA BR OVC009
      TEMPO 2613/2615 P6SM -RA OVC025
     FM261500 22013G22KT P6SM SCT035
     FM270000 22012KT P6SM SCT040
     FM271000 36012G20KT 5SM -RA OVC010=



000
FTUS42 KRAH 261307 AAB
TAFRWI
TAF AMD
KRWI 261307Z 2613/2712 18010KT 3SM -SHRA BR OVC009
      TEMPO 2613/2615 P6SM -RA OVC025
     FM261500 22013G22KT P6SM SCT035
     FM270000 22012KT P6SM SCT040
     FM271000 36012G20KT 5SM -RA OVC010=



000
FTUS42 KRAH 261305 AAA
TAFRDU
TAF AMD
KRDU 261305Z 2613/2712 18010KT P6SM SCT008 BKN050
      TEMPO 2613/2615 BKN008
     FM261600 22013G22KT P6SM BKN025
     FM270000 22010KT P6SM SCT040
     FM271000 36012G20KT 5SM -RA OVC010=



000
FTUS42 KRAH 261305 AAA
TAFRDU
TAF AMD
KRDU 261305Z 2613/2712 18010KT P6SM SCT008 BKN050
      TEMPO 2613/2615 BKN008
     FM261600 22013G22KT P6SM BKN025
     FM270000 22010KT P6SM SCT040
     FM271000 36012G20KT 5SM -RA OVC010=



000
FTUS42 KRAH 261218 AAA
TAFINT
TAF AMD
KINT 261218Z 2612/2712 00000KT 2SM BR OVC003
      TEMPO 2612/2614 1/2SM FG VV002
     FM261500 22010KT P6SM BKN015
     FM261700 23012G20KT P6SM SCT025
     FM262300 23008KT P6SM SCT035
     FM270700 36012G18KT 5SM -RA OVC012=



000
FTUS42 KRAH 261218 AAA
TAFINT
TAF AMD
KINT 261218Z 2612/2712 00000KT 2SM BR OVC003
      TEMPO 2612/2614 1/2SM FG VV002
     FM261500 22010KT P6SM BKN015
     FM261700 23012G20KT P6SM SCT025
     FM262300 23008KT P6SM SCT035
     FM270700 36012G18KT 5SM -RA OVC012=



000
FTUS42 KRAH 261218 AAA
TAFINT
TAF AMD
KINT 261218Z 2612/2712 00000KT 2SM BR OVC003
      TEMPO 2612/2614 1/2SM FG VV002
     FM261500 22010KT P6SM BKN015
     FM261700 23012G20KT P6SM SCT025
     FM262300 23008KT P6SM SCT035
     FM270700 36012G18KT 5SM -RA OVC012=



000
FTUS42 KRAH 261217 AAA
TAFFAY
TAF AMD
KFAY 261217Z 2612/2712 18010KT P6SM OVC012
      TEMPO 2612/2614 BKN005
     FM261500 22013G22KT P6SM SCT035
     FM270000 22012KT P6SM SCT040
     FM271000 36012G20KT 5SM -RA OVC010=



000
FTUS42 KRAH 261217 AAA
TAFFAY
TAF AMD
KFAY 261217Z 2612/2712 18010KT P6SM OVC012
      TEMPO 2612/2614 BKN005
     FM261500 22013G22KT P6SM SCT035
     FM270000 22012KT P6SM SCT040
     FM271000 36012G20KT 5SM -RA OVC010=



000
FTUS42 KRAH 261217 AAA
TAFFAY
TAF AMD
KFAY 261217Z 2612/2712 18010KT P6SM OVC012
      TEMPO 2612/2614 BKN005
     FM261500 22013G22KT P6SM SCT035
     FM270000 22012KT P6SM SCT040
     FM271000 36012G20KT 5SM -RA OVC010=



000
FTUS42 KRAH 261217 AAA
TAFFAY
TAF AMD
KFAY 261217Z 2612/2712 18010KT P6SM OVC012
      TEMPO 2612/2614 BKN005
     FM261500 22013G22KT P6SM SCT035
     FM270000 22012KT P6SM SCT040
     FM271000 36012G20KT 5SM -RA OVC010=



000
FTUS42 KRAH 261217 AAA
TAFRWI
TAF AMD
KRWI 261217Z 2612/2712 18010KT P6SM OVC009
      TEMPO 2612/2613 1 1/2SM TSRA BR BKN006CB
     FM261500 22013G22KT P6SM SCT035
     FM270000 22012KT P6SM SCT040
     FM271000 36012G20KT 5SM -RA OVC010=



000
FTUS42 KRAH 261217 AAA
TAFRWI
TAF AMD
KRWI 261217Z 2612/2712 18010KT P6SM OVC009
      TEMPO 2612/2613 1 1/2SM TSRA BR BKN006CB
     FM261500 22013G22KT P6SM SCT035
     FM270000 22012KT P6SM SCT040
     FM271000 36012G20KT 5SM -RA OVC010=



000
FTUS42 KRAH 261217 AAA
TAFRWI
TAF AMD
KRWI 261217Z 2612/2712 18010KT P6SM OVC009
      TEMPO 2612/2613 1 1/2SM TSRA BR BKN006CB
     FM261500 22013G22KT P6SM SCT035
     FM270000 22012KT P6SM SCT040
     FM271000 36012G20KT 5SM -RA OVC010=



000
FTUS42 KRAH 261217 AAA
TAFRWI
TAF AMD
KRWI 261217Z 2612/2712 18010KT P6SM OVC009
      TEMPO 2612/2613 1 1/2SM TSRA BR BKN006CB
     FM261500 22013G22KT P6SM SCT035
     FM270000 22012KT P6SM SCT040
     FM271000 36012G20KT 5SM -RA OVC010=



000
FTUS42 KRAH 261216 AAA
TAFGSO
TAF AMD
KGSO 261216Z 2612/2712 00000KT 2SM BR OVC003
      TEMPO 2612/2615 1/4SM FG VV001
     FM261500 22010KT P6SM BKN015
     FM261700 23012G20KT P6SM SCT025
     FM262300 23008KT P6SM SCT035
     FM270700 36012G18KT 5SM -RA OVC012=



000
FTUS42 KRAH 261216 AAA
TAFGSO
TAF AMD
KGSO 261216Z 2612/2712 00000KT 2SM BR OVC003
      TEMPO 2612/2615 1/4SM FG VV001
     FM261500 22010KT P6SM BKN015
     FM261700 23012G20KT P6SM SCT025
     FM262300 23008KT P6SM SCT035
     FM270700 36012G18KT 5SM -RA OVC012=



000
FTUS42 KRAH 261216 AAA
TAFGSO
TAF AMD
KGSO 261216Z 2612/2712 00000KT 2SM BR OVC003
      TEMPO 2612/2615 1/4SM FG VV001
     FM261500 22010KT P6SM BKN015
     FM261700 23012G20KT P6SM SCT025
     FM262300 23008KT P6SM SCT035
     FM270700 36012G18KT 5SM -RA OVC012=



000
FTUS42 KRAH 261216 AAA
TAFGSO
TAF AMD
KGSO 261216Z 2612/2712 00000KT 2SM BR OVC003
      TEMPO 2612/2615 1/4SM FG VV001
     FM261500 22010KT P6SM BKN015
     FM261700 23012G20KT P6SM SCT025
     FM262300 23008KT P6SM SCT035
     FM270700 36012G18KT 5SM -RA OVC012=



000
FTUS42 KRAH 261140
TAFINT
TAF
KINT 261140Z 2612/2712 00000KT 2SM BR OVC003
      TEMPO 2612/2615 22005KT BKN009
     FM261500 22010KT P6SM BKN015
     FM261700 23012G20KT P6SM SCT025
     FM262300 23008KT P6SM SCT035
     FM270700 36012G18KT 5SM -RA OVC012=



000
FTUS42 KRAH 261140
TAFFAY
TAF
KFAY 261140Z 2612/2712 18010KT P6SM OVC012
      TEMPO 2612/2615 20012G18KT BKN025
     FM261500 22013G22KT P6SM SCT035
     FM270000 22012KT P6SM SCT040
     FM271000 36012G20KT 5SM -RA OVC010=



000
FTUS42 KRAH 261140
TAFGSO
TAF
KGSO 261140Z 2612/2712 00000KT 2SM BR OVC003
      TEMPO 2612/2615 22005KT BKN009
     FM261500 22010KT P6SM BKN015
     FM261700 23012G20KT P6SM SCT025
     FM262300 23008KT P6SM SCT035
     FM270700 36012G18KT 5SM -RA OVC012=



000
FTUS42 KRAH 261140
TAFGSO
TAF
KGSO 261140Z 2612/2712 00000KT 2SM BR OVC003
      TEMPO 2612/2615 22005KT BKN009
     FM261500 22010KT P6SM BKN015
     FM261700 23012G20KT P6SM SCT025
     FM262300 23008KT P6SM SCT035
     FM270700 36012G18KT 5SM -RA OVC012=



000
FTUS42 KRAH 261140
TAFFAY
TAF
KFAY 261140Z 2612/2712 18010KT P6SM OVC012
      TEMPO 2612/2615 20012G18KT BKN025
     FM261500 22013G22KT P6SM SCT035
     FM270000 22012KT P6SM SCT040
     FM271000 36012G20KT 5SM -RA OVC010=



000
FTUS42 KRAH 261140
TAFINT
TAF
KINT 261140Z 2612/2712 00000KT 2SM BR OVC003
      TEMPO 2612/2615 22005KT BKN009
     FM261500 22010KT P6SM BKN015
     FM261700 23012G20KT P6SM SCT025
     FM262300 23008KT P6SM SCT035
     FM270700 36012G18KT 5SM -RA OVC012=



000
FTUS42 KRAH 261140
TAFRDU
TAF
KRDU 261140Z 2612/2712 18010KT P6SM BKN012 OVC020
      TEMPO 2612/2616 20012G18KT BKN025
     FM261600 22013G22KT P6SM SCT035
     FM270000 22010KT P6SM SCT040
     FM271000 36012G20KT 5SM -RA OVC010=



000
FTUS42 KRAH 261140
TAFINT
TAF
KINT 261140Z 2612/2712 00000KT 2SM BR OVC003
      TEMPO 2612/2615 22005KT BKN009
     FM261500 22010KT P6SM BKN015
     FM261700 23012G20KT P6SM SCT025
     FM262300 23008KT P6SM SCT035
     FM270700 36012G18KT 5SM -RA OVC012=



000
FTUS42 KRAH 261140
TAFRWI
TAF
KRWI 261140Z 2612/2712 18010KT P6SM OVC009
      TEMPO 2612/2615 20012G18KT BKN025
     FM261500 22013G22KT P6SM SCT035
     FM270000 22012KT P6SM SCT040
     FM271000 36012G20KT 5SM -RA OVC010=



000
FTUS42 KRAH 261140
TAFRWI
TAF
KRWI 261140Z 2612/2712 18010KT P6SM OVC009
      TEMPO 2612/2615 20012G18KT BKN025
     FM261500 22013G22KT P6SM SCT035
     FM270000 22012KT P6SM SCT040
     FM271000 36012G20KT 5SM -RA OVC010=



000
FTUS42 KRAH 261140
TAFGSO
TAF
KGSO 261140Z 2612/2712 00000KT 2SM BR OVC003
      TEMPO 2612/2615 22005KT BKN009
     FM261500 22010KT P6SM BKN015
     FM261700 23012G20KT P6SM SCT025
     FM262300 23008KT P6SM SCT035
     FM270700 36012G18KT 5SM -RA OVC012=



000
FTUS42 KRAH 261140
TAFGSO
TAF
KGSO 261140Z 2612/2712 00000KT 2SM BR OVC003
      TEMPO 2612/2615 22005KT BKN009
     FM261500 22010KT P6SM BKN015
     FM261700 23012G20KT P6SM SCT025
     FM262300 23008KT P6SM SCT035
     FM270700 36012G18KT 5SM -RA OVC012=



000
FTUS42 KRAH 261140
TAFINT
TAF
KINT 261140Z 2612/2712 00000KT 2SM BR OVC003
      TEMPO 2612/2615 22005KT BKN009
     FM261500 22010KT P6SM BKN015
     FM261700 23012G20KT P6SM SCT025
     FM262300 23008KT P6SM SCT035
     FM270700 36012G18KT 5SM -RA OVC012=



000
FTUS42 KRAH 261140
TAFFAY
TAF
KFAY 261140Z 2612/2712 18010KT P6SM OVC012
      TEMPO 2612/2615 20012G18KT BKN025
     FM261500 22013G22KT P6SM SCT035
     FM270000 22012KT P6SM SCT040
     FM271000 36012G20KT 5SM -RA OVC010=



000
FTUS42 KRAH 261140
TAFRDU
TAF
KRDU 261140Z 2612/2712 18010KT P6SM BKN012 OVC020
      TEMPO 2612/2616 20012G18KT BKN025
     FM261600 22013G22KT P6SM SCT035
     FM270000 22010KT P6SM SCT040
     FM271000 36012G20KT 5SM -RA OVC010=



000
FTUS42 KRAH 261140
TAFFAY
TAF
KFAY 261140Z 2612/2712 18010KT P6SM OVC012
      TEMPO 2612/2615 20012G18KT BKN025
     FM261500 22013G22KT P6SM SCT035
     FM270000 22012KT P6SM SCT040
     FM271000 36012G20KT 5SM -RA OVC010=



000
FTUS42 KRAH 261140
TAFRDU
TAF
KRDU 261140Z 2612/2712 18010KT P6SM BKN012 OVC020
      TEMPO 2612/2616 20012G18KT BKN025
     FM261600 22013G22KT P6SM SCT035
     FM270000 22010KT P6SM SCT040
     FM271000 36012G20KT 5SM -RA OVC010=



000
FTUS42 KRAH 261140
TAFRWI
TAF
KRWI 261140Z 2612/2712 18010KT P6SM OVC009
      TEMPO 2612/2615 20012G18KT BKN025
     FM261500 22013G22KT P6SM SCT035
     FM270000 22012KT P6SM SCT040
     FM271000 36012G20KT 5SM -RA OVC010=



000
FTUS42 KRAH 261140
TAFRDU
TAF
KRDU 261140Z 2612/2712 18010KT P6SM BKN012 OVC020
      TEMPO 2612/2616 20012G18KT BKN025
     FM261600 22013G22KT P6SM SCT035
     FM270000 22010KT P6SM SCT040
     FM271000 36012G20KT 5SM -RA OVC010=



000
FTUS42 KRAH 261140
TAFRWI
TAF
KRWI 261140Z 2612/2712 18010KT P6SM OVC009
      TEMPO 2612/2615 20012G18KT BKN025
     FM261500 22013G22KT P6SM SCT035
     FM270000 22012KT P6SM SCT040
     FM271000 36012G20KT 5SM -RA OVC010=



000
FTUS42 KRAH 261035 AAA
TAFRWI
TAF AMD
KRWI 261035Z 2611/2706 17009KT P6SM VCSH BKN008 OVC013
      TEMPO 2611/2614 20012G18KT 2SM SHRA OVC005
     FM261400 23012G22KT P6SM SCT025 BKN035=



000
FTUS42 KRAH 261033 AAA
TAFINT
TAF AMD
KINT 261033Z 2611/2706 00000KT 3SM BR OVC004
      TEMPO 2612/2615 22010KT BKN015
     FM261500 22010KT P6SM BKN015
     FM261700 23012G18KT P6SM SCT025=



000
FTUS42 KRAH 261033 AAA
TAFINT
TAF AMD
KINT 261033Z 2611/2706 00000KT 3SM BR OVC004
      TEMPO 2612/2615 22010KT BKN015
     FM261500 22010KT P6SM BKN015
     FM261700 23012G18KT P6SM SCT025=



000
FTUS42 KRAH 261033 AAA
TAFFAY
TAF AMD
KFAY 261033Z 2611/2706 19007KT P6SM OVC008
      TEMPO 2612/2614 22012G18KT P6SM BKN018
     FM261400 23012G22KT P6SM SCT025 BKN035=



000
FTUS42 KRAH 261033 AAA
TAFFAY
TAF AMD
KFAY 261033Z 2611/2706 19007KT P6SM OVC008
      TEMPO 2612/2614 22012G18KT P6SM BKN018
     FM261400 23012G22KT P6SM SCT025 BKN035=



000
FTUS42 KRAH 261032 AAA
TAFGSO
TAF AMD
KGSO 261032Z 2611/2706 00000KT 3SM BR BKN007 OVC018
      TEMPO 2612/2615 22010KT BKN015
     FM261500 22010KT P6SM BKN015
     FM261700 23012G18KT P6SM SCT025=



000
FTUS42 KRAH 261032 AAA
TAFGSO
TAF AMD
KGSO 261032Z 2611/2706 00000KT 3SM BR BKN007 OVC018
      TEMPO 2612/2615 22010KT BKN015
     FM261500 22010KT P6SM BKN015
     FM261700 23012G18KT P6SM SCT025=



000
FTUS42 KRAH 261030 AAC
TAFRDU
TAF AMD
KRDU 261030Z 2611/2706 17010KT P6SM SCT015 BKN100
      TEMPO 2611/2615 20012KT BKN008
     FM261700 23012G18KT P6SM SCT025=



000
FTUS42 KRAH 261030 AAC
TAFRDU
TAF AMD
KRDU 261030Z 2611/2706 17010KT P6SM SCT015 BKN100
      TEMPO 2611/2615 20012KT BKN008
     FM261700 23012G18KT P6SM SCT025=



000
FTUS42 KRAH 261030 AAC
TAFRDU
TAF AMD
KRDU 261030Z 2611/2706 17010KT P6SM SCT015 BKN100
      TEMPO 2611/2615 20012KT BKN008
     FM261700 23012G18KT P6SM SCT025=



000
FTUS42 KRAH 261030 AAC
TAFRDU
TAF AMD
KRDU 261030Z 2611/2706 17010KT P6SM SCT015 BKN100
      TEMPO 2611/2615 20012KT BKN008
     FM261700 23012G18KT P6SM SCT025=



000
FTUS42 KRAH 261029 AAB
TAFRDU
TAF AMD
KRDU 261029Z 2610/2706 00000KT P6SM SCT015 BKN100
      TEMPO 2610/2612 BKN004 OVC015
     FM261500 22010KT P6SM BKN008
     FM261700 23012G18KT P6SM SCT025=



000
FTUS42 KRAH 261029 AAB
TAFRDU
TAF AMD
KRDU 261029Z 2610/2706 00000KT P6SM SCT015 BKN100
      TEMPO 2610/2612 BKN004 OVC015
     FM261500 22010KT P6SM BKN008
     FM261700 23012G18KT P6SM SCT025=



000
FTUS42 KRAH 260850 AAA
TAFRDU
TAF AMD
KRDU 260850Z 2609/2706 00000KT 5SM BR BKN003 OVC018
      TEMPO 2609/2610 3SM TSRA BKN003 OVC015CB
     FM261500 22010KT P6SM BKN008
     FM261700 23012G18KT P6SM SCT025=



000
FTUS42 KRAH 260850 AAA
TAFRDU
TAF AMD
KRDU 260850Z 2609/2706 00000KT 5SM BR BKN003 OVC018
      TEMPO 2609/2610 3SM TSRA BKN003 OVC015CB
     FM261500 22010KT P6SM BKN008
     FM261700 23012G18KT P6SM SCT025=



000
FTUS42 KRAH 260607 CCA
TAFFAY
TAF COR
KFAY 260607Z 2606/2706 08005KT 6SM BR VCSH BKN025 OVC050
      TEMPO 2606/2610 2SM SHRA OVC009
     FM261400 23012G22KT P6SM SCT025 BKN035=



000
FTUS42 KRAH 260607 CCA
TAFFAY
TAF COR
KFAY 260607Z 2606/2706 08005KT 6SM BR VCSH BKN025 OVC050
      TEMPO 2606/2610 2SM SHRA OVC009
     FM261400 23012G22KT P6SM SCT025 BKN035=



000
FTUS42 KRAH 260607 CCA
TAFFAY
TAF COR
KFAY 260607Z 2606/2706 08005KT 6SM BR VCSH BKN025 OVC050
      TEMPO 2606/2610 2SM SHRA OVC009
     FM261400 23012G22KT P6SM SCT025 BKN035=



000
FTUS42 KRAH 260540
TAFINT
TAF
KINT 260540Z 2606/2706 00000KT P6SM OVC009
      TEMPO 2606/2610 OVC004
     FM261000 00000KT P6SM OVC004
     FM261500 22010KT P6SM BKN008
     FM261700 23012G18KT P6SM SCT025=



000
FTUS42 KRAH 260540
TAFRWI
TAF
KRWI 260540Z 2606/2706 00000KT 3SM -SHRA BR SCT015 BKN035
      TEMPO 2606/2610 1/2SM FG OVC002
     FM261400 23012G22KT P6SM SCT025 BKN035=



000
FTUS42 KRAH 260540
TAFFAY
TAF
KFAY 260540Z 2606/2706 00000KT 1/4SM FG VV005
      TEMPO 2606/2610 2SM -SHRA OVC005
     FM261400 23012G22KT P6SM SCT025 BKN035=



000
FTUS42 KRAH 260540
TAFFAY
TAF
KFAY 260540Z 2606/2706 00000KT 1/4SM FG VV005
      TEMPO 2606/2610 2SM -SHRA OVC005
     FM261400 23012G22KT P6SM SCT025 BKN035=



000
FTUS42 KRAH 260540
TAFGSO
TAF
KGSO 260540Z 2606/2706 00000KT P6SM OVC009
      TEMPO 2606/2610 OVC004
     FM261000 00000KT P6SM OVC004
     FM261500 22010KT P6SM BKN008
     FM261700 23012G18KT P6SM SCT025=



000
FTUS42 KRAH 260540
TAFRWI
TAF
KRWI 260540Z 2606/2706 00000KT 3SM -SHRA BR SCT015 BKN035
      TEMPO 2606/2610 1/2SM FG OVC002
     FM261400 23012G22KT P6SM SCT025 BKN035=



000
FTUS42 KRAH 260540
TAFINT
TAF
KINT 260540Z 2606/2706 00000KT P6SM OVC009
      TEMPO 2606/2610 OVC004
     FM261000 00000KT P6SM OVC004
     FM261500 22010KT P6SM BKN008
     FM261700 23012G18KT P6SM SCT025=



000
FTUS42 KRAH 260540
TAFRDU
TAF
KRDU 260540Z 2606/2706 00000KT P6SM OVC009
      TEMPO 2606/2610 3SM BR OVC004
     FM261000 00000KT 3SM BR OVC004
     FM261500 22010KT P6SM BKN008
     FM261700 23012G18KT P6SM SCT025=



000
FTUS42 KRAH 260540
TAFRDU
TAF
KRDU 260540Z 2606/2706 00000KT P6SM OVC009
      TEMPO 2606/2610 3SM BR OVC004
     FM261000 00000KT 3SM BR OVC004
     FM261500 22010KT P6SM BKN008
     FM261700 23012G18KT P6SM SCT025=



000
FTUS42 KRAH 260540
TAFGSO
TAF
KGSO 260540Z 2606/2706 00000KT P6SM OVC009
      TEMPO 2606/2610 OVC004
     FM261000 00000KT P6SM OVC004
     FM261500 22010KT P6SM BKN008
     FM261700 23012G18KT P6SM SCT025=



000
FTUS42 KRAH 260540
TAFGSO
TAF
KGSO 260540Z 2606/2706 00000KT P6SM OVC009
      TEMPO 2606/2610 OVC004
     FM261000 00000KT P6SM OVC004
     FM261500 22010KT P6SM BKN008
     FM261700 23012G18KT P6SM SCT025=



000
FTUS42 KRAH 260540
TAFRWI
TAF
KRWI 260540Z 2606/2706 00000KT 3SM -SHRA BR SCT015 BKN035
      TEMPO 2606/2610 1/2SM FG OVC002
     FM261400 23012G22KT P6SM SCT025 BKN035=



000
FTUS42 KRAH 260540
TAFFAY
TAF
KFAY 260540Z 2606/2706 00000KT 1/4SM FG VV005
      TEMPO 2606/2610 2SM -SHRA OVC005
     FM261400 23012G22KT P6SM SCT025 BKN035=



000
FTUS42 KRAH 260540
TAFINT
TAF
KINT 260540Z 2606/2706 00000KT P6SM OVC009
      TEMPO 2606/2610 OVC004
     FM261000 00000KT P6SM OVC004
     FM261500 22010KT P6SM BKN008
     FM261700 23012G18KT P6SM SCT025=



000
FTUS42 KRAH 260540
TAFRDU
TAF
KRDU 260540Z 2606/2706 00000KT P6SM OVC009
      TEMPO 2606/2610 3SM BR OVC004
     FM261000 00000KT 3SM BR OVC004
     FM261500 22010KT P6SM BKN008
     FM261700 23012G18KT P6SM SCT025=



000
FTUS42 KRAH 260433 AAC
TAFRDU
TAF AMD
KRDU 260433Z 2605/2624 08003KT P6SM VCSH OVC012
     FM260700 VRB03KT 3SM -SHRA BR OVC006
      TEMPO 2608/2612 1SM BR OVC003
     FM261500 21009KT 6SM BR BKN015
     FM261800 24012G22KT P6SM SCT020 BKN035=



000
FTUS42 KRAH 260433 AAC
TAFRDU
TAF AMD
KRDU 260433Z 2605/2624 08003KT P6SM VCSH OVC012
     FM260700 VRB03KT 3SM -SHRA BR OVC006
      TEMPO 2608/2612 1SM BR OVC003
     FM261500 21009KT 6SM BR BKN015
     FM261800 24012G22KT P6SM SCT020 BKN035=



000
FTUS42 KRAH 260432 AAB
TAFGSO
TAF AMD
KGSO 260432Z 2605/2624 04004KT P6SM VCSH OVC012
     FM260600 VRB03KT 3SM BR VCSH OVC007
     FM260800 VRB03KT 2SM BR VCSH OVC003
      TEMPO 2609/2613 1/2SM FG OVC002
     FM261500 23007KT 4SM BR BKN008
     FM261700 24012KT P6SM SCT015 BKN035=



000
FTUS42 KRAH 260432 AAB
TAFGSO
TAF AMD
KGSO 260432Z 2605/2624 04004KT P6SM VCSH OVC012
     FM260600 VRB03KT 3SM BR VCSH OVC007
     FM260800 VRB03KT 2SM BR VCSH OVC003
      TEMPO 2609/2613 1/2SM FG OVC002
     FM261500 23007KT 4SM BR BKN008
     FM261700 24012KT P6SM SCT015 BKN035=



000
FTUS42 KRAH 260432 AAA
TAFINT
TAF AMD
KINT 260432Z 2605/2624 04004KT P6SM VCSH OVC012
     FM260600 VRB03KT 3SM BR VCSH OVC007
     FM260800 VRB03KT 2SM BR VCSH OVC003
      TEMPO 2609/2613 1/2SM FG OVC002
     FM261500 23007KT 4SM BR BKN008
     FM261700 24012KT P6SM SCT015 BKN035=



000
FTUS42 KRAH 260432 AAA
TAFINT
TAF AMD
KINT 260432Z 2605/2624 04004KT P6SM VCSH OVC012
     FM260600 VRB03KT 3SM BR VCSH OVC007
     FM260800 VRB03KT 2SM BR VCSH OVC003
      TEMPO 2609/2613 1/2SM FG OVC002
     FM261500 23007KT 4SM BR BKN008
     FM261700 24012KT P6SM SCT015 BKN035=



000
FTUS42 KRAH 260403 AAC
TAFFAY
TAF AMD
KFAY 260403Z 2604/2624 11005KT 4SM BR VCSH SCT022 BKN035 OVC080
      TEMPO 2604/2605 1SM BR BKN003
     FM260600 19010G18KT P6SM VCSH BKN015
      TEMPO 2607/2610 2SM -SHRA OVC006
     FM261400 23012G22KT P6SM SCT025 BKN035=



000
FTUS42 KRAH 260336 AAB
TAFRDU
TAF AMD
KRDU 260336Z 2604/2624 07003KT P6SM VCSH BKN025 OVC040
     FM260800 16004KT 3SM -SHRA BR OVC006
      TEMPO 2608/2611 1SM BR OVC003
     FM261500 21009KT 6SM BR BKN015
     FM261800 24012G22KT P6SM SCT020 BKN035=



000
FTUS42 KRAH 260336 AAB
TAFRDU
TAF AMD
KRDU 260336Z 2604/2624 07003KT P6SM VCSH BKN025 OVC040
     FM260800 16004KT 3SM -SHRA BR OVC006
      TEMPO 2608/2611 1SM BR OVC003
     FM261500 21009KT 6SM BR BKN015
     FM261800 24012G22KT P6SM SCT020 BKN035=



000
FTUS42 KRAH 260329 AAB
TAFFAY
TAF AMD
KFAY 260329Z 2603/2624 11005KT P6SM VCSH SCT022 OVC035
      TEMPO 2603/2604 4SM BR BKN005
     FM260600 19010G18KT P6SM VCSH BKN015
      TEMPO 2607/2610 2SM -SHRA OVC006
     FM261400 23012G22KT P6SM SCT025 BKN035=



000
FTUS42 KRAH 260329 AAB
TAFFAY
TAF AMD
KFAY 260329Z 2603/2624 11005KT P6SM VCSH SCT022 OVC035
      TEMPO 2603/2604 4SM BR BKN005
     FM260600 19010G18KT P6SM VCSH BKN015
      TEMPO 2607/2610 2SM -SHRA OVC006
     FM261400 23012G22KT P6SM SCT025 BKN035=



000
FTUS42 KRAH 260159 AAB
TAFRWI
TAF AMD
KRWI 260159Z 2602/2624 17007KT P6SM VCSH SCT030 OVC060
      TEMPO 2602/2605 4SM -SHRA BKN028
     FM260600 19010G18KT P6SM VCSH BKN015
      TEMPO 2608/2610 2SM -SHRA OVC006
     FM261400 23012G22KT P6SM SCT025 BKN035=



000
FTUS42 KRAH 260159 AAB
TAFRWI
TAF AMD
KRWI 260159Z 2602/2624 17007KT P6SM VCSH SCT030 OVC060
      TEMPO 2602/2605 4SM -SHRA BKN028
     FM260600 19010G18KT P6SM VCSH BKN015
      TEMPO 2608/2610 2SM -SHRA OVC006
     FM261400 23012G22KT P6SM SCT025 BKN035=



000
FTUS42 KRAH 260158 AAA
TAFRDU
TAF AMD
KRDU 260158Z 2602/2624 01004KT P6SM VCSH SCT035 BKN050
     FM260500 VRB03KT 4SM -SHRA BR OVC012
     FM260700 16004KT 3SM -SHRA BR OVC006
      TEMPO 2607/2610 1SM BR OVC003
     FM261500 21009KT 6SM BR BKN015
     FM261800 24012G22KT P6SM SCT020 BKN035=



000
FTUS42 KRAH 260158 AAA
TAFRDU
TAF AMD
KRDU 260158Z 2602/2624 01004KT P6SM VCSH SCT035 BKN050
     FM260500 VRB03KT 4SM -SHRA BR OVC012
     FM260700 16004KT 3SM -SHRA BR OVC006
      TEMPO 2607/2610 1SM BR OVC003
     FM261500 21009KT 6SM BR BKN015
     FM261800 24012G22KT P6SM SCT020 BKN035=



000
FTUS42 KRAH 260157 AAA
TAFGSO
TAF AMD
KGSO 260157Z 2602/2624 36004KT P6SM OVC030
      TEMPO 2602/2603 OVC035
     FM260500 VRB03KT 3SM BR VCSH OVC007
     FM260800 VRB03KT 2SM BR VCSH OVC003
      TEMPO 2609/2613 1/2SM FG OVC002
     FM261500 23007KT 4SM BR BKN008
     FM261700 24012KT P6SM SCT015 BKN035=



000
FTUS42 KRAH 260157 AAA
TAFGSO
TAF AMD
KGSO 260157Z 2602/2624 36004KT P6SM OVC030
      TEMPO 2602/2603 OVC035
     FM260500 VRB03KT 3SM BR VCSH OVC007
     FM260800 VRB03KT 2SM BR VCSH OVC003
      TEMPO 2609/2613 1/2SM FG OVC002
     FM261500 23007KT 4SM BR BKN008
     FM261700 24012KT P6SM SCT015 BKN035=



000
FTUS42 KRAH 260052 AAA
TAFRWI
TAF AMD
KRWI 260052Z 2601/2624 17007KT P6SM VCSH SCT030 OVC060
      TEMPO 2603/2605 4SM -SHRA BKN022
     FM260600 19010G18KT P6SM VCSH BKN015
      TEMPO 2608/2610 2SM -SHRA OVC006
     FM261400 23012G22KT P6SM SCT025 BKN035=



000
FTUS42 KRAH 260052 AAA
TAFRWI
TAF AMD
KRWI 260052Z 2601/2624 17007KT P6SM VCSH SCT030 OVC060
      TEMPO 2603/2605 4SM -SHRA BKN022
     FM260600 19010G18KT P6SM VCSH BKN015
      TEMPO 2608/2610 2SM -SHRA OVC006
     FM261400 23012G22KT P6SM SCT025 BKN035=



000
FTUS42 KRAH 260052 AAA
TAFRWI
TAF AMD
KRWI 260052Z 2601/2624 17007KT P6SM VCSH SCT030 OVC060
      TEMPO 2603/2605 4SM -SHRA BKN022
     FM260600 19010G18KT P6SM VCSH BKN015
      TEMPO 2608/2610 2SM -SHRA OVC006
     FM261400 23012G22KT P6SM SCT025 BKN035=



000
FTUS42 KRAH 260050 AAA
TAFFAY
TAF AMD
KFAY 260050Z 2601/2624 16007KT P6SM VCSH SCT022 OVC035
      TEMPO 2601/2602 4SM -SHRA BKN022
     FM260600 19010G18KT P6SM VCSH BKN015
      TEMPO 2607/2610 2SM -SHRA OVC006
     FM261400 23012G22KT P6SM SCT025 BKN035=



000
FTUS42 KRAH 260050 AAA
TAFFAY
TAF AMD
KFAY 260050Z 2601/2624 16007KT P6SM VCSH SCT022 OVC035
      TEMPO 2601/2602 4SM -SHRA BKN022
     FM260600 19010G18KT P6SM VCSH BKN015
      TEMPO 2607/2610 2SM -SHRA OVC006
     FM261400 23012G22KT P6SM SCT025 BKN035=



000
FTUS42 KRAH 260050 AAA
TAFFAY
TAF AMD
KFAY 260050Z 2601/2624 16007KT P6SM VCSH SCT022 OVC035
      TEMPO 2601/2602 4SM -SHRA BKN022
     FM260600 19010G18KT P6SM VCSH BKN015
      TEMPO 2607/2610 2SM -SHRA OVC006
     FM261400 23012G22KT P6SM SCT025 BKN035=



000
FTUS42 KRAH 260050 AAA
TAFFAY
TAF AMD
KFAY 260050Z 2601/2624 16007KT P6SM VCSH SCT022 OVC035
      TEMPO 2601/2602 4SM -SHRA BKN022
     FM260600 19010G18KT P6SM VCSH BKN015
      TEMPO 2607/2610 2SM -SHRA OVC006
     FM261400 23012G22KT P6SM SCT025 BKN035=



000
FTUS42 KRAH 252340
TAFFAY
TAF
KFAY 252340Z 2600/2624 16007KT P6SM BKN045
     FM260400 18005KT P6SM VCSH OVC012
     FM260600 18005KT 5SM BR OVC007 PROB30 2609/2614 2SM -SHRA
      OVC003
     FM261500 21010KT 6SM BR OVC015
     FM261700 23012G20KT P6SM OVC035=



000
FTUS42 KRAH 252340
TAFRWI
TAF
KRWI 252340Z 2600/2624 16007KT P6SM BKN045
     FM260400 18005KT P6SM VCSH OVC012
     FM260600 18005KT 5SM BR OVC007 PROB30 2609/2614 2SM -SHRA
      OVC003
     FM261500 21010KT 6SM BR OVC015
     FM261700 23012G20KT P6SM OVC035=



000
FTUS42 KRAH 252340
TAFGSO
TAF
KGSO 252340Z 2600/2624 36004KT P6SM OVC030
      TEMPO 2600/2603 OVC035
     FM260500 VRB03KT 3SM BR VCSH OVC007
     FM260800 VRB03KT 2SM BR VCSH OVC003
      TEMPO 2609/2613 1/2SM FG OVC002
     FM261500 23007KT 4SM BR BKN008
     FM261700 24012KT P6SM SCT015 BKN035=



000
FTUS42 KRAH 252340
TAFINT
TAF
KINT 252340Z 2600/2624 36004KT P6SM OVC030
      TEMPO 2600/2603 OVC035
     FM260500 VRB03KT 3SM BR VCSH OVC007
     FM260800 VRB03KT 2SM BR VCSH OVC003
      TEMPO 2609/2613 1/2SM FG OVC002
     FM261500 23007KT 4SM BR BKN008
     FM261700 24012KT P6SM SCT015 BKN035=



000
FTUS42 KRAH 252340
TAFRDU
TAF
KRDU 252340Z 2600/2624 01004KT P6SM VCSH SCT035 BKN050
     FM260500 VRB03KT 4SM -SHRA BR OVC012
     FM260700 16004KT 3SM -SHRA BR OVC006
      TEMPO 2607/2610 1SM BR OVC003
     FM261500 21009KT 6SM BR BKN015
     FM261800 24012G22KT P6SM SCT020 BKN035=



000
FTUS42 KRAH 252340
TAFFAY
TAF
KFAY 252340Z 2600/2624 16007KT P6SM BKN045
     FM260400 18005KT P6SM VCSH OVC012
     FM260600 18005KT 5SM BR OVC007 PROB30 2609/2614 2SM -SHRA
      OVC003
     FM261500 21010KT 6SM BR OVC015
     FM261700 23012G20KT P6SM OVC035=



000
FTUS42 KRAH 252340
TAFINT
TAF
KINT 252340Z 2600/2624 36004KT P6SM OVC030
      TEMPO 2600/2603 OVC035
     FM260500 VRB03KT 3SM BR VCSH OVC007
     FM260800 VRB03KT 2SM BR VCSH OVC003
      TEMPO 2609/2613 1/2SM FG OVC002
     FM261500 23007KT 4SM BR BKN008
     FM261700 24012KT P6SM SCT015 BKN035=



000
FTUS42 KRAH 252340
TAFRDU
TAF
KRDU 252340Z 2600/2624 01004KT P6SM VCSH SCT035 BKN050
     FM260500 VRB03KT 4SM -SHRA BR OVC012
     FM260700 16004KT 3SM -SHRA BR OVC006
      TEMPO 2607/2610 1SM BR OVC003
     FM261500 21009KT 6SM BR BKN015
     FM261800 24012G22KT P6SM SCT020 BKN035=



000
FTUS42 KRAH 252340
TAFRWI
TAF
KRWI 252340Z 2600/2624 16007KT P6SM BKN045
     FM260400 18005KT P6SM VCSH OVC012
     FM260600 18005KT 5SM BR OVC007 PROB30 2609/2614 2SM -SHRA
      OVC003
     FM261500 21010KT 6SM BR OVC015
     FM261700 23012G20KT P6SM OVC035=



000
FTUS42 KRAH 252340
TAFGSO
TAF
KGSO 252340Z 2600/2624 36004KT P6SM OVC030
      TEMPO 2600/2603 OVC035
     FM260500 VRB03KT 3SM BR VCSH OVC007
     FM260800 VRB03KT 2SM BR VCSH OVC003
      TEMPO 2609/2613 1/2SM FG OVC002
     FM261500 23007KT 4SM BR BKN008
     FM261700 24012KT P6SM SCT015 BKN035=



000
FTUS42 KRAH 252340
TAFRWI
TAF
KRWI 252340Z 2600/2624 16007KT P6SM BKN045
     FM260400 18005KT P6SM VCSH OVC012
     FM260600 18005KT 5SM BR OVC007 PROB30 2609/2614 2SM -SHRA
      OVC003
     FM261500 21010KT 6SM BR OVC015
     FM261700 23012G20KT P6SM OVC035=



000
FTUS42 KRAH 252340
TAFINT
TAF
KINT 252340Z 2600/2624 36004KT P6SM OVC030
      TEMPO 2600/2603 OVC035
     FM260500 VRB03KT 3SM BR VCSH OVC007
     FM260800 VRB03KT 2SM BR VCSH OVC003
      TEMPO 2609/2613 1/2SM FG OVC002
     FM261500 23007KT 4SM BR BKN008
     FM261700 24012KT P6SM SCT015 BKN035=



000
FTUS42 KRAH 252340
TAFRDU
TAF
KRDU 252340Z 2600/2624 01004KT P6SM VCSH SCT035 BKN050
     FM260500 VRB03KT 4SM -SHRA BR OVC012
     FM260700 16004KT 3SM -SHRA BR OVC006
      TEMPO 2607/2610 1SM BR OVC003
     FM261500 21009KT 6SM BR BKN015
     FM261800 24012G22KT P6SM SCT020 BKN035=



000
FTUS42 KRAH 252340
TAFGSO
TAF
KGSO 252340Z 2600/2624 36004KT P6SM OVC030
      TEMPO 2600/2603 OVC035
     FM260500 VRB03KT 3SM BR VCSH OVC007
     FM260800 VRB03KT 2SM BR VCSH OVC003
      TEMPO 2609/2613 1/2SM FG OVC002
     FM261500 23007KT 4SM BR BKN008
     FM261700 24012KT P6SM SCT015 BKN035=



000
FTUS42 KRAH 252340
TAFFAY
TAF
KFAY 252340Z 2600/2624 16007KT P6SM BKN045
     FM260400 18005KT P6SM VCSH OVC012
     FM260600 18005KT 5SM BR OVC007 PROB30 2609/2614 2SM -SHRA
      OVC003
     FM261500 21010KT 6SM BR OVC015
     FM261700 23012G20KT P6SM OVC035=



000
FTUS42 KRAH 252340
TAFFAY
TAF
KFAY 252340Z 2600/2624 16007KT P6SM BKN045
     FM260400 18005KT P6SM VCSH OVC012
     FM260600 18005KT 5SM BR OVC007 PROB30 2609/2614 2SM -SHRA
      OVC003
     FM261500 21010KT 6SM BR OVC015
     FM261700 23012G20KT P6SM OVC035=



000
FTUS42 KRAH 252340
TAFINT
TAF
KINT 252340Z 2600/2624 36004KT P6SM OVC030
      TEMPO 2600/2603 OVC035
     FM260500 VRB03KT 3SM BR VCSH OVC007
     FM260800 VRB03KT 2SM BR VCSH OVC003
      TEMPO 2609/2613 1/2SM FG OVC002
     FM261500 23007KT 4SM BR BKN008
     FM261700 24012KT P6SM SCT015 BKN035=



000
FTUS42 KRAH 252340
TAFRDU
TAF
KRDU 252340Z 2600/2624 01004KT P6SM VCSH SCT035 BKN050
     FM260500 VRB03KT 4SM -SHRA BR OVC012
     FM260700 16004KT 3SM -SHRA BR OVC006
      TEMPO 2607/2610 1SM BR OVC003
     FM261500 21009KT 6SM BR BKN015
     FM261800 24012G22KT P6SM SCT020 BKN035=



000
FTUS42 KRAH 252340
TAFRWI
TAF
KRWI 252340Z 2600/2624 16007KT P6SM BKN045
     FM260400 18005KT P6SM VCSH OVC012
     FM260600 18005KT 5SM BR OVC007 PROB30 2609/2614 2SM -SHRA
      OVC003
     FM261500 21010KT 6SM BR OVC015
     FM261700 23012G20KT P6SM OVC035=



000
FTUS42 KRAH 252340
TAFGSO
TAF
KGSO 252340Z 2600/2624 36004KT P6SM OVC030
      TEMPO 2600/2603 OVC035
     FM260500 VRB03KT 3SM BR VCSH OVC007
     FM260800 VRB03KT 2SM BR VCSH OVC003
      TEMPO 2609/2613 1/2SM FG OVC002
     FM261500 23007KT 4SM BR BKN008
     FM261700 24012KT P6SM SCT015 BKN035=



000
FTUS42 KRAH 251951 AAA
TAFGSO
TAF AMD
KGSO 251951Z 2520/2618 08005KT P6SM BKN015
      TEMPO 2520/2524 SCT015 BKN050
     FM260300 08004KT 4SM -SHRA OVC007
     FM260600 VRB05KT 2SM -SHRA OVC003
     FM261500 23007KT 4SM BR OVC008
     FM261700 24012KT P6SM OVC015=



000
FTUS42 KRAH 251951 AAA
TAFGSO
TAF AMD
KGSO 251951Z 2520/2618 08005KT P6SM BKN015
      TEMPO 2520/2524 SCT015 BKN050
     FM260300 08004KT 4SM -SHRA OVC007
     FM260600 VRB05KT 2SM -SHRA OVC003
     FM261500 23007KT 4SM BR OVC008
     FM261700 24012KT P6SM OVC015=



000
FTUS42 KRAH 251951 AAA
TAFGSO
TAF AMD
KGSO 251951Z 2520/2618 08005KT P6SM BKN015
      TEMPO 2520/2524 SCT015 BKN050
     FM260300 08004KT 4SM -SHRA OVC007
     FM260600 VRB05KT 2SM -SHRA OVC003
     FM261500 23007KT 4SM BR OVC008
     FM261700 24012KT P6SM OVC015=



000
FTUS42 KRAH 251951 AAA
TAFGSO
TAF AMD
KGSO 251951Z 2520/2618 08005KT P6SM BKN015
      TEMPO 2520/2524 SCT015 BKN050
     FM260300 08004KT 4SM -SHRA OVC007
     FM260600 VRB05KT 2SM -SHRA OVC003
     FM261500 23007KT 4SM BR OVC008
     FM261700 24012KT P6SM OVC015=



000
FTUS42 KRAH 251950 AAA
TAFINT
TAF AMD
KINT 251950Z 2520/2618 08005KT P6SM BKN015
      TEMPO 2520/2524 SCT015 BKN050
     FM260000 08004KT 5SM BR VCSH OVC007
     FM260300 VRB05KT 2SM -SHRA OVC003
     FM261500 23007KT 4SM BR OVC008
     FM261700 24012KT P6SM OVC015=



000
FTUS42 KRAH 251950 AAA
TAFINT
TAF AMD
KINT 251950Z 2520/2618 08005KT P6SM BKN015
      TEMPO 2520/2524 SCT015 BKN050
     FM260000 08004KT 5SM BR VCSH OVC007
     FM260300 VRB05KT 2SM -SHRA OVC003
     FM261500 23007KT 4SM BR OVC008
     FM261700 24012KT P6SM OVC015=



000
FTUS42 KRAH 251949 AAA
TAFRDU
TAF AMD
KRDU 251949Z 2520/2618 08007KT P6SM SCT020 BKN050
     FM260400 18005KT 5SM BR OVC007 PROB30 2609/2614 2SM -SHRA
      OVC003
     FM261500 21009KT 6SM BR OVC015
     FM261700 24012G20KT P6SM OVC025=



000
FTUS42 KRAH 251949 AAA
TAFRDU
TAF AMD
KRDU 251949Z 2520/2618 08007KT P6SM SCT020 BKN050
     FM260400 18005KT 5SM BR OVC007 PROB30 2609/2614 2SM -SHRA
      OVC003
     FM261500 21009KT 6SM BR OVC015
     FM261700 24012G20KT P6SM OVC025=



000
FTUS42 KRAH 251949 AAA
TAFRDU
TAF AMD
KRDU 251949Z 2520/2618 08007KT P6SM SCT020 BKN050
     FM260400 18005KT 5SM BR OVC007 PROB30 2609/2614 2SM -SHRA
      OVC003
     FM261500 21009KT 6SM BR OVC015
     FM261700 24012G20KT P6SM OVC025=



000
FTUS42 KRAH 251949 AAA
TAFRDU
TAF AMD
KRDU 251949Z 2520/2618 08007KT P6SM SCT020 BKN050
     FM260400 18005KT 5SM BR OVC007 PROB30 2609/2614 2SM -SHRA
      OVC003
     FM261500 21009KT 6SM BR OVC015
     FM261700 24012G20KT P6SM OVC025=



000
FTUS42 KRAH 251735
TAFRDU
TAF
KRDU 251735Z 2518/2618 08007KT P6SM BKN020 OVC060
      TEMPO 2519/2523 SCT020 BKN040
     FM260400 18005KT 5SM BR OVC007 PROB30 2609/2614 2SM -SHRA
      OVC003
     FM261500 21009KT 6SM BR OVC015
     FM261700 24012G20KT P6SM OVC025=



000
FTUS42 KRAH 251735
TAFFAY
TAF
KFAY 251735Z 2518/2618 05007KT P6SM SCT020 BKN050
     FM260300 18005KT P6SM OVC015
     FM260600 18005KT 5SM BR OVC007 PROB30 2609/2614 2SM -SHRA
      OVC003
     FM261500 21010KT 6SM BR OVC015
     FM261700 23012G20KT P6SM OVC035=



000
FTUS42 KRAH 251735
TAFRWI
TAF
KRWI 251735Z 2518/2618 05007KT P6SM SCT020 BKN050
     FM260300 18005KT P6SM OVC015
     FM260600 18005KT 5SM BR OVC007 PROB30 2609/2614 2SM -SHRA
      OVC003
     FM261500 21009KT 4SM BR OVC015
     FM261700 24012G20KT P6SM OVC025=



000
FTUS42 KRAH 251735
TAFINT
TAF
KINT 251735Z 2518/2618 08005KT P6SM OVC010
     FM252300 08004KT 5SM BR VCSH OVC007
     FM260300 VRB05KT 2SM -SHRA OVC003
     FM261500 23007KT 4SM BR OVC008
     FM261700 24012KT P6SM OVC015=



000
FTUS42 KRAH 251735
TAFGSO
TAF
KGSO 251735Z 2518/2618 08005KT P6SM OVC010
     FM252300 08004KT 4SM -SHRA OVC007
     FM260300 VRB05KT 2SM -SHRA OVC003
     FM261500 23007KT 4SM BR OVC008
     FM261700 24012KT P6SM OVC015=



000
FTUS42 KRAH 251735
TAFFAY
TAF
KFAY 251735Z 2518/2618 05007KT P6SM SCT020 BKN050
     FM260300 18005KT P6SM OVC015
     FM260600 18005KT 5SM BR OVC007 PROB30 2609/2614 2SM -SHRA
      OVC003
     FM261500 21010KT 6SM BR OVC015
     FM261700 23012G20KT P6SM OVC035=



000
FTUS42 KRAH 251735
TAFGSO
TAF
KGSO 251735Z 2518/2618 08005KT P6SM OVC010
     FM252300 08004KT 4SM -SHRA OVC007
     FM260300 VRB05KT 2SM -SHRA OVC003
     FM261500 23007KT 4SM BR OVC008
     FM261700 24012KT P6SM OVC015=



000
FTUS42 KRAH 251735
TAFINT
TAF
KINT 251735Z 2518/2618 08005KT P6SM OVC010
     FM252300 08004KT 5SM BR VCSH OVC007
     FM260300 VRB05KT 2SM -SHRA OVC003
     FM261500 23007KT 4SM BR OVC008
     FM261700 24012KT P6SM OVC015=



000
FTUS42 KRAH 251735
TAFRDU
TAF
KRDU 251735Z 2518/2618 08007KT P6SM BKN020 OVC060
      TEMPO 2519/2523 SCT020 BKN040
     FM260400 18005KT 5SM BR OVC007 PROB30 2609/2614 2SM -SHRA
      OVC003
     FM261500 21009KT 6SM BR OVC015
     FM261700 24012G20KT P6SM OVC025=



000
FTUS42 KRAH 251735
TAFRWI
TAF
KRWI 251735Z 2518/2618 05007KT P6SM SCT020 BKN050
     FM260300 18005KT P6SM OVC015
     FM260600 18005KT 5SM BR OVC007 PROB30 2609/2614 2SM -SHRA
      OVC003
     FM261500 21009KT 4SM BR OVC015
     FM261700 24012G20KT P6SM OVC025=



000
FTUS42 KRAH 251549 AAB
TAFFAY
TAF AMD
KFAY 251549Z 2516/2612 10006KT P6SM BKN050
     FM260100 13006KT P6SM OVC015
     FM260400 18005KT P6SM OVC005=



000
FTUS42 KRAH 251549 AAB
TAFFAY
TAF AMD
KFAY 251549Z 2516/2612 10006KT P6SM BKN050
     FM260100 13006KT P6SM OVC015
     FM260400 18005KT P6SM OVC005=



000
FTUS42 KRAH 251303 AAA
TAFRWI
TAF AMD
KRWI 251303Z 2513/2612 05007KT P6SM SCT020 BKN050
     FM260300 18005KT P6SM OVC015
     FM260600 16004KT 4SM BR OVC007=



000
FTUS42 KRAH 251303 AAA
TAFRWI
TAF AMD
KRWI 251303Z 2513/2612 05007KT P6SM SCT020 BKN050
     FM260300 18005KT P6SM OVC015
     FM260600 16004KT 4SM BR OVC007=



000
FTUS42 KRAH 251303 AAA
TAFRWI
TAF AMD
KRWI 251303Z 2513/2612 05007KT P6SM SCT020 BKN050
     FM260300 18005KT P6SM OVC015
     FM260600 16004KT 4SM BR OVC007=



000
FTUS42 KRAH 251302 AAA
TAFFAY
TAF AMD
KFAY 251302Z 2513/2612 06008KT P6SM OVC018
     FM251900 12006KT P6SM BKN050
     FM260100 13006KT P6SM OVC015
     FM260400 18005KT P6SM OVC005=



000
FTUS42 KRAH 251302 AAA
TAFFAY
TAF AMD
KFAY 251302Z 2513/2612 06008KT P6SM OVC018
     FM251900 12006KT P6SM BKN050
     FM260100 13006KT P6SM OVC015
     FM260400 18005KT P6SM OVC005=



000
FTUS42 KRAH 251302 AAA
TAFFAY
TAF AMD
KFAY 251302Z 2513/2612 06008KT P6SM OVC018
     FM251900 12006KT P6SM BKN050
     FM260100 13006KT P6SM OVC015
     FM260400 18005KT P6SM OVC005=



000
FTUS42 KRAH 251300 AAA
TAFRDU
TAF AMD
KRDU 251300Z 2513/2612 08007KT P6SM BKN020 OVC060
      TEMPO 2519/2523 SCT020 BKN040
     FM260400 18005KT P6SM OVC005=



000
FTUS42 KRAH 251300 AAA
TAFRDU
TAF AMD
KRDU 251300Z 2513/2612 08007KT P6SM BKN020 OVC060
      TEMPO 2519/2523 SCT020 BKN040
     FM260400 18005KT P6SM OVC005=



000
FTUS42 KRAH 251300 AAA
TAFRDU
TAF AMD
KRDU 251300Z 2513/2612 08007KT P6SM BKN020 OVC060
      TEMPO 2519/2523 SCT020 BKN040
     FM260400 18005KT P6SM OVC005=



000
FTUS42 KRAH 251300 AAA
TAFRDU
TAF AMD
KRDU 251300Z 2513/2612 08007KT P6SM BKN020 OVC060
      TEMPO 2519/2523 SCT020 BKN040
     FM260400 18005KT P6SM OVC005=



000
FTUS42 KRAH 251259 AAA
TAFINT
TAF AMD
KINT 251259Z 2513/2612 08005KT P6SM OVC015
     FM252100 08004KT 4SM -DZ OVC007
     FM260000 VRB05KT P6SM OVC003=



000
FTUS42 KRAH 251259 AAA
TAFINT
TAF AMD
KINT 251259Z 2513/2612 08005KT P6SM OVC015
     FM252100 08004KT 4SM -DZ OVC007
     FM260000 VRB05KT P6SM OVC003=



000
FTUS42 KRAH 251259 AAA
TAFINT
TAF AMD
KINT 251259Z 2513/2612 08005KT P6SM OVC015
     FM252100 08004KT 4SM -DZ OVC007
     FM260000 VRB05KT P6SM OVC003=



000
FTUS42 KRAH 251258 AAA
TAFGSO
TAF AMD
KGSO 251258Z 2513/2612 08005KT P6SM OVC015
     FM252100 08004KT 4SM -DZ OVC007
     FM260000 VRB05KT P6SM OVC003=



000
FTUS42 KRAH 251258 AAA
TAFGSO
TAF AMD
KGSO 251258Z 2513/2612 08005KT P6SM OVC015
     FM252100 08004KT 4SM -DZ OVC007
     FM260000 VRB05KT P6SM OVC003=



000
FTUS42 KRAH 251258 AAA
TAFGSO
TAF AMD
KGSO 251258Z 2513/2612 08005KT P6SM OVC015
     FM252100 08004KT 4SM -DZ OVC007
     FM260000 VRB05KT P6SM OVC003=



000
FTUS42 KRAH 251258 AAA
TAFGSO
TAF AMD
KGSO 251258Z 2513/2612 08005KT P6SM OVC015
     FM252100 08004KT 4SM -DZ OVC007
     FM260000 VRB05KT P6SM OVC003=



000
FTUS42 KRAH 251120
TAFRDU
TAF
KRDU 251120Z 2512/2612 08007KT P6SM BKN020 OVC060
      TEMPO 2512/2516 OVC014
     FM260400 18005KT P6SM OVC005=



000
FTUS42 KRAH 251120
TAFRDU
TAF
KRDU 251120Z 2512/2612 08007KT P6SM BKN020 OVC060
      TEMPO 2512/2516 OVC014
     FM260400 18005KT P6SM OVC005=



000
FTUS42 KRAH 251120
TAFFAY
TAF
KFAY 251120Z 2512/2612 06008KT P6SM OVC018
      TEMPO 2513/2517 OVC007
     FM260400 18005KT P6SM OVC005=



000
FTUS42 KRAH 251120
TAFRWI
TAF
KRWI 251120Z 2512/2612 05007KT P6SM OVC028
      TEMPO 2512/2516 OVC015
     FM260400 18005KT P6SM OVC015=



000
FTUS42 KRAH 251120
TAFGSO
TAF
KGSO 251120Z 2512/2612 08008KT P6SM OVC014
      TEMPO 2512/2516 6SM -RA OVC005
     FM260000 VRB05KT P6SM OVC003=



000
FTUS42 KRAH 251120
TAFINT
TAF
KINT 251120Z 2512/2612 08005KT P6SM OVC015
      TEMPO 2512/2516 6SM -RA OVC005
     FM260000 VRB05KT P6SM OVC003=



000
FTUS42 KRAH 251120
TAFINT
TAF
KINT 251120Z 2512/2612 08005KT P6SM OVC015
      TEMPO 2512/2516 6SM -RA OVC005
     FM260000 VRB05KT P6SM OVC003=



000
FTUS42 KRAH 251120
TAFGSO
TAF
KGSO 251120Z 2512/2612 08008KT P6SM OVC014
      TEMPO 2512/2516 6SM -RA OVC005
     FM260000 VRB05KT P6SM OVC003=



000
FTUS42 KRAH 251120
TAFFAY
TAF
KFAY 251120Z 2512/2612 06008KT P6SM OVC018
      TEMPO 2513/2517 OVC007
     FM260400 18005KT P6SM OVC005=



000
FTUS42 KRAH 251120
TAFRWI
TAF
KRWI 251120Z 2512/2612 05007KT P6SM OVC028
      TEMPO 2512/2516 OVC015
     FM260400 18005KT P6SM OVC015=



000
FTUS42 KRAH 251011 AAA
TAFRWI
TAF AMD
KRWI 251011Z 2510/2606 05007KT P6SM OVC028
      TEMPO 2512/2516 OVC015
     FM260400 18005KT P6SM OVC015=



000
FTUS42 KRAH 251011 AAA
TAFRWI
TAF AMD
KRWI 251011Z 2510/2606 05007KT P6SM OVC028
      TEMPO 2512/2516 OVC015
     FM260400 18005KT P6SM OVC015=



000
FTUS42 KRAH 251010 AAA
TAFFAY
TAF AMD
KFAY 251010Z 2510/2606 06008KT P6SM OVC018
      TEMPO 2513/2517 OVC007
     FM260400 18005KT P6SM OVC005=



000
FTUS42 KRAH 251010 AAA
TAFFAY
TAF AMD
KFAY 251010Z 2510/2606 06008KT P6SM OVC018
      TEMPO 2513/2517 OVC007
     FM260400 18005KT P6SM OVC005=



000
FTUS42 KRAH 251010 AAA
TAFFAY
TAF AMD
KFAY 251010Z 2510/2606 06008KT P6SM OVC018
      TEMPO 2513/2517 OVC007
     FM260400 18005KT P6SM OVC005=



000
FTUS42 KRAH 251009 AAA
TAFRDU
TAF AMD
KRDU 251009Z 2510/2606 08007KT P6SM BKN020 OVC060
      TEMPO 2512/2516 OVC014
     FM260400 18005KT P6SM OVC005=



000
FTUS42 KRAH 251009 AAA
TAFRDU
TAF AMD
KRDU 251009Z 2510/2606 08007KT P6SM BKN020 OVC060
      TEMPO 2512/2516 OVC014
     FM260400 18005KT P6SM OVC005=



000
FTUS42 KRAH 251006 AAA
TAFINT
TAF AMD
KINT 251006Z 2510/2606 08005KT P6SM OVC015
      TEMPO 2512/2516 6SM -RA OVC005
     FM260000 VRB05KT P6SM OVC005=



000
FTUS42 KRAH 251006 AAA
TAFINT
TAF AMD
KINT 251006Z 2510/2606 08005KT P6SM OVC015
      TEMPO 2512/2516 6SM -RA OVC005
     FM260000 VRB05KT P6SM OVC005=



000
FTUS42 KRAH 251006 AAA
TAFGSO
TAF AMD
KGSO 251006Z 2510/2606 08008KT P6SM OVC014
      TEMPO 2512/2516 6SM -RA OVC005
     FM260000 VRB05KT P6SM OVC005=



000
FTUS42 KRAH 251006 AAA
TAFGSO
TAF AMD
KGSO 251006Z 2510/2606 08008KT P6SM OVC014
      TEMPO 2512/2516 6SM -RA OVC005
     FM260000 VRB05KT P6SM OVC005=



000
FTUS42 KRAH 250520
TAFRDU
TAF
KRDU 250520Z 2506/2606 09008KT P6SM SCT060 BKN250
      TEMPO 2506/2510 09012G18KT BKN015
     FM251000 07008KT P6SM OVC009
      TEMPO 2517/2520 BKN015
     FM252000 VRB06KT P6SM SCT020=



000
FTUS42 KRAH 250520
TAFFAY
TAF
KFAY 250520Z 2506/2606 08008KT P6SM OVC020
      TEMPO 2506/2510 08012G18KT OVC007
     FM251000 08008KT P6SM OVC007
      TEMPO 2515/2518 11010KT BKN015
     FM251800 14012G20KT P6SM SCT020=



000
FTUS42 KRAH 250520
TAFGSO
TAF
KGSO 250520Z 2506/2606 06009KT P6SM OVC060
      TEMPO 2508/2510 BKN010
     FM251000 07007KT 6SM -RA OVC010
     FM260000 VRB05KT P6SM OVC005=



000
FTUS42 KRAH 250520
TAFFAY
TAF
KFAY 250520Z 2506/2606 08008KT P6SM OVC020
      TEMPO 2506/2510 08012G18KT OVC007
     FM251000 08008KT P6SM OVC007
      TEMPO 2515/2518 11010KT BKN015
     FM251800 14012G20KT P6SM SCT020=



000
FTUS42 KRAH 250520
TAFGSO
TAF
KGSO 250520Z 2506/2606 06009KT P6SM OVC060
      TEMPO 2508/2510 BKN010
     FM251000 07007KT 6SM -RA OVC010
     FM260000 VRB05KT P6SM OVC005=



000
FTUS42 KRAH 250520
TAFINT
TAF
KINT 250520Z 2506/2606 06009KT P6SM OVC060
      TEMPO 2508/2510 BKN010
     FM251000 07007KT 6SM -RA OVC010
     FM260000 VRB05KT P6SM OVC005=



000
FTUS42 KRAH 250520
TAFINT
TAF
KINT 250520Z 2506/2606 06009KT P6SM OVC060
      TEMPO 2508/2510 BKN010
     FM251000 07007KT 6SM -RA OVC010
     FM260000 VRB05KT P6SM OVC005=



000
FTUS42 KRAH 250520
TAFRWI
TAF
KRWI 250520Z 2506/2606 06007KT P6SM BKN120
      TEMPO 2506/2510 BKN015
     FM251000 07007KT P6SM OVC009
      TEMPO 2517/2520 BKN015
     FM252000 14012KT P6SM SCT025=



000
FTUS42 KRAH 250520
TAFRDU
TAF
KRDU 250520Z 2506/2606 09008KT P6SM SCT060 BKN250
      TEMPO 2506/2510 09012G18KT BKN015
     FM251000 07008KT P6SM OVC009
      TEMPO 2517/2520 BKN015
     FM252000 VRB06KT P6SM SCT020=



000
FTUS42 KRAH 250520
TAFGSO
TAF
KGSO 250520Z 2506/2606 06009KT P6SM OVC060
      TEMPO 2508/2510 BKN010
     FM251000 07007KT 6SM -RA OVC010
     FM260000 VRB05KT P6SM OVC005=



000
FTUS42 KRAH 250520
TAFINT
TAF
KINT 250520Z 2506/2606 06009KT P6SM OVC060
      TEMPO 2508/2510 BKN010
     FM251000 07007KT 6SM -RA OVC010
     FM260000 VRB05KT P6SM OVC005=



000
FTUS42 KRAH 250520
TAFFAY
TAF
KFAY 250520Z 2506/2606 08008KT P6SM OVC020
      TEMPO 2506/2510 08012G18KT OVC007
     FM251000 08008KT P6SM OVC007
      TEMPO 2515/2518 11010KT BKN015
     FM251800 14012G20KT P6SM SCT020=



000
FTUS42 KRAH 250520
TAFRWI
TAF
KRWI 250520Z 2506/2606 06007KT P6SM BKN120
      TEMPO 2506/2510 BKN015
     FM251000 07007KT P6SM OVC009
      TEMPO 2517/2520 BKN015
     FM252000 14012KT P6SM SCT025=



000
FTUS42 KRAH 250520
TAFFAY
TAF
KFAY 250520Z 2506/2606 08008KT P6SM OVC020
      TEMPO 2506/2510 08012G18KT OVC007
     FM251000 08008KT P6SM OVC007
      TEMPO 2515/2518 11010KT BKN015
     FM251800 14012G20KT P6SM SCT020=



000
FTUS42 KRAH 250520
TAFRWI
TAF
KRWI 250520Z 2506/2606 06007KT P6SM BKN120
      TEMPO 2506/2510 BKN015
     FM251000 07007KT P6SM OVC009
      TEMPO 2517/2520 BKN015
     FM252000 14012KT P6SM SCT025=



000
FTUS42 KRAH 250520
TAFRDU
TAF
KRDU 250520Z 2506/2606 09008KT P6SM SCT060 BKN250
      TEMPO 2506/2510 09012G18KT BKN015
     FM251000 07008KT P6SM OVC009
      TEMPO 2517/2520 BKN015
     FM252000 VRB06KT P6SM SCT020=



000
FTUS42 KRAH 250520
TAFRWI
TAF
KRWI 250520Z 2506/2606 06007KT P6SM BKN120
      TEMPO 2506/2510 BKN015
     FM251000 07007KT P6SM OVC009
      TEMPO 2517/2520 BKN015
     FM252000 14012KT P6SM SCT025=



000
FTUS42 KRAH 250357 AAB
TAFFAY
TAF AMD
KFAY 250357Z 2504/2524 08007KT P6SM BKN018 BKN250
     FM252200 07005KT P6SM SCT020 BKN035=



000
FTUS42 KRAH 250357 AAB
TAFFAY
TAF AMD
KFAY 250357Z 2504/2524 08007KT P6SM BKN018 BKN250
     FM252200 07005KT P6SM SCT020 BKN035=



000
FTUS42 KRAH 250215 AAA
TAFRDU
TAF AMD
KRDU 250215Z 2502/2524 09007KT P6SM SCT060 BKN250
     FM250700 08007KT P6SM BKN012=



000
FTUS42 KRAH 250215 AAA
TAFFAY
TAF AMD
KFAY 250215Z 2502/2524 09008KT P6SM BKN250
     FM250700 08006KT P6SM BKN012
     FM252200 07005KT P6SM SCT020 BKN035=



000
FTUS42 KRAH 250215 AAA
TAFFAY
TAF AMD
KFAY 250215Z 2502/2524 09008KT P6SM BKN250
     FM250700 08006KT P6SM BKN012
     FM252200 07005KT P6SM SCT020 BKN035=



000
FTUS42 KRAH 250215 AAA
TAFINT
TAF AMD
KINT 250215Z 2502/2524 07007KT P6SM BKN060 BKN250
     FM250600 08006KT P6SM BKN015
     FM251200 06004KT 5SM -RA BKN008 OVC012
     FM251800 08004KT P6SM OVC012=



000
FTUS42 KRAH 250215 AAA
TAFRWI
TAF AMD
KRWI 250215Z 2502/2524 08008KT P6SM BKN250
     FM250700 08006KT P6SM BKN012
     FM252200 07005KT P6SM SCT020 BKN035=



000
FTUS42 KRAH 250215 AAA
TAFINT
TAF AMD
KINT 250215Z 2502/2524 07007KT P6SM BKN060 BKN250
     FM250600 08006KT P6SM BKN015
     FM251200 06004KT 5SM -RA BKN008 OVC012
     FM251800 08004KT P6SM OVC012=



000
FTUS42 KRAH 250215 AAA
TAFGSO
TAF AMD
KGSO 250215Z 2502/2524 07007KT P6SM BKN060 BKN250
     FM250600 08006KT P6SM BKN015
      TEMPO 2512/2516 5SM -RA SCT008 OVC010=



000
FTUS42 KRAH 250215 AAA
TAFRWI
TAF AMD
KRWI 250215Z 2502/2524 08008KT P6SM BKN250
     FM250700 08006KT P6SM BKN012
     FM252200 07005KT P6SM SCT020 BKN035=



000
FTUS42 KRAH 250215 AAA
TAFRDU
TAF AMD
KRDU 250215Z 2502/2524 09007KT P6SM SCT060 BKN250
     FM250700 08007KT P6SM BKN012=



000
FTUS42 KRAH 250215 AAA
TAFGSO
TAF AMD
KGSO 250215Z 2502/2524 07007KT P6SM BKN060 BKN250
     FM250600 08006KT P6SM BKN015
      TEMPO 2512/2516 5SM -RA SCT008 OVC010=



000
FTUS42 KRAH 250215 AAA
TAFRWI
TAF AMD
KRWI 250215Z 2502/2524 08008KT P6SM BKN250
     FM250700 08006KT P6SM BKN012
     FM252200 07005KT P6SM SCT020 BKN035=



000
FTUS42 KRAH 250215 AAA
TAFINT
TAF AMD
KINT 250215Z 2502/2524 07007KT P6SM BKN060 BKN250
     FM250600 08006KT P6SM BKN015
     FM251200 06004KT 5SM -RA BKN008 OVC012
     FM251800 08004KT P6SM OVC012=



000
FTUS42 KRAH 250215 AAA
TAFFAY
TAF AMD
KFAY 250215Z 2502/2524 09008KT P6SM BKN250
     FM250700 08006KT P6SM BKN012
     FM252200 07005KT P6SM SCT020 BKN035=



000
FTUS42 KRAH 250215 AAA
TAFRWI
TAF AMD
KRWI 250215Z 2502/2524 08008KT P6SM BKN250
     FM250700 08006KT P6SM BKN012
     FM252200 07005KT P6SM SCT020 BKN035=



000
FTUS42 KRAH 250215 AAA
TAFGSO
TAF AMD
KGSO 250215Z 2502/2524 07007KT P6SM BKN060 BKN250
     FM250600 08006KT P6SM BKN015
      TEMPO 2512/2516 5SM -RA SCT008 OVC010=



000
FTUS42 KRAH 250215 AAA
TAFRDU
TAF AMD
KRDU 250215Z 2502/2524 09007KT P6SM SCT060 BKN250
     FM250700 08007KT P6SM BKN012=



000
FTUS42 KRAH 242340
TAFGSO
TAF
KGSO 242340Z 2500/2524 14004KT P6SM SCT090 BKN250
     FM250600 08004KT P6SM BKN015
      TEMPO 2512/2516 5SM -RA SCT008 OVC010=



000
FTUS42 KRAH 242340
TAFRWI
TAF
KRWI 242340Z 2500/2524 08004KT P6SM BKN250
     FM250700 08006KT P6SM BKN012
     FM252200 07005KT P6SM SCT020 BKN035=



000
FTUS42 KRAH 242340
TAFGSO
TAF
KGSO 242340Z 2500/2524 14004KT P6SM SCT090 BKN250
     FM250600 08004KT P6SM BKN015
      TEMPO 2512/2516 5SM -RA SCT008 OVC010=



000
FTUS42 KRAH 242340
TAFRWI
TAF
KRWI 242340Z 2500/2524 08004KT P6SM BKN250
     FM250700 08006KT P6SM BKN012
     FM252200 07005KT P6SM SCT020 BKN035=



000
FTUS42 KRAH 242340
TAFFAY
TAF
KFAY 242340Z 2500/2524 09004KT P6SM BKN250
     FM250700 08006KT P6SM BKN012
     FM252200 07005KT P6SM SCT020 BKN035=



000
FTUS42 KRAH 242340
TAFRDU
TAF
KRDU 242340Z 2500/2524 12004KT P6SM BKN250
     FM250700 08005KT P6SM BKN012=



000
FTUS42 KRAH 242340
TAFRWI
TAF
KRWI 242340Z 2500/2524 08004KT P6SM BKN250
     FM250700 08006KT P6SM BKN012
     FM252200 07005KT P6SM SCT020 BKN035=



000
FTUS42 KRAH 242340
TAFINT
TAF
KINT 242340Z 2500/2524 14004KT P6SM SCT090 BKN250
     FM250600 08004KT P6SM BKN015
     FM251200 07004KT 5SM -RA SCT008 OVC010
     FM251800 08004KT P6SM OVC012=



000
FTUS42 KRAH 242340
TAFFAY
TAF
KFAY 242340Z 2500/2524 09004KT P6SM BKN250
     FM250700 08006KT P6SM BKN012
     FM252200 07005KT P6SM SCT020 BKN035=



000
FTUS42 KRAH 242340
TAFRDU
TAF
KRDU 242340Z 2500/2524 12004KT P6SM BKN250
     FM250700 08005KT P6SM BKN012=



000
FTUS42 KRAH 242340
TAFFAY
TAF
KFAY 242340Z 2500/2524 09004KT P6SM BKN250
     FM250700 08006KT P6SM BKN012
     FM252200 07005KT P6SM SCT020 BKN035=



000
FTUS42 KRAH 242340
TAFINT
TAF
KINT 242340Z 2500/2524 14004KT P6SM SCT090 BKN250
     FM250600 08004KT P6SM BKN015
     FM251200 07004KT 5SM -RA SCT008 OVC010
     FM251800 08004KT P6SM OVC012=



000
FTUS42 KRAH 242340
TAFGSO
TAF
KGSO 242340Z 2500/2524 14004KT P6SM SCT090 BKN250
     FM250600 08004KT P6SM BKN015
      TEMPO 2512/2516 5SM -RA SCT008 OVC010=



000
FTUS42 KRAH 242340
TAFRWI
TAF
KRWI 242340Z 2500/2524 08004KT P6SM BKN250
     FM250700 08006KT P6SM BKN012
     FM252200 07005KT P6SM SCT020 BKN035=



000
FTUS42 KRAH 242340
TAFRDU
TAF
KRDU 242340Z 2500/2524 12004KT P6SM BKN250
     FM250700 08005KT P6SM BKN012=



000
FTUS42 KRAH 242340
TAFRDU
TAF
KRDU 242340Z 2500/2524 12004KT P6SM BKN250
     FM250700 08005KT P6SM BKN012=



000
FTUS42 KRAH 242340
TAFFAY
TAF
KFAY 242340Z 2500/2524 09004KT P6SM BKN250
     FM250700 08006KT P6SM BKN012
     FM252200 07005KT P6SM SCT020 BKN035=



000
FTUS42 KRAH 242340
TAFINT
TAF
KINT 242340Z 2500/2524 14004KT P6SM SCT090 BKN250
     FM250600 08004KT P6SM BKN015
     FM251200 07004KT 5SM -RA SCT008 OVC010
     FM251800 08004KT P6SM OVC012=



000
FTUS42 KRAH 242340
TAFGSO
TAF
KGSO 242340Z 2500/2524 14004KT P6SM SCT090 BKN250
     FM250600 08004KT P6SM BKN015
      TEMPO 2512/2516 5SM -RA SCT008 OVC010=



000
FTUS42 KRAH 242340
TAFINT
TAF
KINT 242340Z 2500/2524 14004KT P6SM SCT090 BKN250
     FM250600 08004KT P6SM BKN015
     FM251200 07004KT 5SM -RA SCT008 OVC010
     FM251800 08004KT P6SM OVC012=



000
FTUS42 KRAH 241726
TAFRWI
TAF
KRWI 241726Z 2418/2518 VRB04KT P6SM FEW025 BKN040 BKN100
     FM250600 08006KT P6SM OVC015
     FM250900 07006KT P6SM OVC007
     FM251700 06005KT 5SM BR OVC015=



000
FTUS42 KRAH 241726
TAFFAY
TAF
KFAY 241726Z 2418/2518 VRB04KT P6SM SCT025 SCT040 SCT100
     FM250600 08006KT P6SM OVC015
     FM250900 07006KT P6SM OVC007
     FM251700 07007KT 6SM BR OVC015=



000
FTUS42 KRAH 241726
TAFINT
TAF
KINT 241726Z 2418/2518 VRB04KT P6SM SCT035
      TEMPO 2503/2506 P6SM -RA OVC015
     FM250600 08004KT 4SM BR OVC007 PROB30 2508/2512 4SM -RA OVC003=



000
FTUS42 KRAH 241726
TAFRDU
TAF
KRDU 241726Z 2418/2518 VRB04KT P6SM FEW025 SCT040 BKN100
     FM250600 08006KT P6SM OVC015
     FM250900 07006KT P6SM OVC007=



000
FTUS42 KRAH 241726
TAFGSO
TAF
KGSO 241726Z 2418/2518 VRB04KT P6SM SCT035
      TEMPO 2503/2506 P6SM -RA OVC015
     FM250600 08004KT 4SM BR OVC007 PROB30 2508/2512 4SM -RA OVC003=



000
FTUS42 KRAH 241726
TAFGSO
TAF
KGSO 241726Z 2418/2518 VRB04KT P6SM SCT035
      TEMPO 2503/2506 P6SM -RA OVC015
     FM250600 08004KT 4SM BR OVC007 PROB30 2508/2512 4SM -RA OVC003=



000
FTUS42 KRAH 241726
TAFGSO
TAF
KGSO 241726Z 2418/2518 VRB04KT P6SM SCT035
      TEMPO 2503/2506 P6SM -RA OVC015
     FM250600 08004KT 4SM BR OVC007 PROB30 2508/2512 4SM -RA OVC003=



000
FTUS42 KRAH 241726
TAFRWI
TAF
KRWI 241726Z 2418/2518 VRB04KT P6SM FEW025 BKN040 BKN100
     FM250600 08006KT P6SM OVC015
     FM250900 07006KT P6SM OVC007
     FM251700 06005KT 5SM BR OVC015=



000
FTUS42 KRAH 241726
TAFRDU
TAF
KRDU 241726Z 2418/2518 VRB04KT P6SM FEW025 SCT040 BKN100
     FM250600 08006KT P6SM OVC015
     FM250900 07006KT P6SM OVC007=



000
FTUS42 KRAH 241726
TAFFAY
TAF
KFAY 241726Z 2418/2518 VRB04KT P6SM SCT025 SCT040 SCT100
     FM250600 08006KT P6SM OVC015
     FM250900 07006KT P6SM OVC007
     FM251700 07007KT 6SM BR OVC015=



000
FTUS42 KRAH 241726
TAFINT
TAF
KINT 241726Z 2418/2518 VRB04KT P6SM SCT035
      TEMPO 2503/2506 P6SM -RA OVC015
     FM250600 08004KT 4SM BR OVC007 PROB30 2508/2512 4SM -RA OVC003=



000
FTUS42 KRAH 241726
TAFRWI
TAF
KRWI 241726Z 2418/2518 VRB04KT P6SM FEW025 BKN040 BKN100
     FM250600 08006KT P6SM OVC015
     FM250900 07006KT P6SM OVC007
     FM251700 06005KT 5SM BR OVC015=



000
FTUS42 KRAH 241726
TAFGSO
TAF
KGSO 241726Z 2418/2518 VRB04KT P6SM SCT035
      TEMPO 2503/2506 P6SM -RA OVC015
     FM250600 08004KT 4SM BR OVC007 PROB30 2508/2512 4SM -RA OVC003=



000
FTUS42 KRAH 241726
TAFRDU
TAF
KRDU 241726Z 2418/2518 VRB04KT P6SM FEW025 SCT040 BKN100
     FM250600 08006KT P6SM OVC015
     FM250900 07006KT P6SM OVC007=



000
FTUS42 KRAH 241726
TAFRDU
TAF
KRDU 241726Z 2418/2518 VRB04KT P6SM FEW025 SCT040 BKN100
     FM250600 08006KT P6SM OVC015
     FM250900 07006KT P6SM OVC007=



000
FTUS42 KRAH 241726
TAFINT
TAF
KINT 241726Z 2418/2518 VRB04KT P6SM SCT035
      TEMPO 2503/2506 P6SM -RA OVC015
     FM250600 08004KT 4SM BR OVC007 PROB30 2508/2512 4SM -RA OVC003=



000
FTUS42 KRAH 241726
TAFFAY
TAF
KFAY 241726Z 2418/2518 VRB04KT P6SM SCT025 SCT040 SCT100
     FM250600 08006KT P6SM OVC015
     FM250900 07006KT P6SM OVC007
     FM251700 07007KT 6SM BR OVC015=



000
FTUS42 KRAH 241726
TAFINT
TAF
KINT 241726Z 2418/2518 VRB04KT P6SM SCT035
      TEMPO 2503/2506 P6SM -RA OVC015
     FM250600 08004KT 4SM BR OVC007 PROB30 2508/2512 4SM -RA OVC003=



000
FTUS42 KRAH 241726
TAFRWI
TAF
KRWI 241726Z 2418/2518 VRB04KT P6SM FEW025 BKN040 BKN100
     FM250600 08006KT P6SM OVC015
     FM250900 07006KT P6SM OVC007
     FM251700 06005KT 5SM BR OVC015=



000
FTUS42 KRAH 241726
TAFFAY
TAF
KFAY 241726Z 2418/2518 VRB04KT P6SM SCT025 SCT040 SCT100
     FM250600 08006KT P6SM OVC015
     FM250900 07006KT P6SM OVC007
     FM251700 07007KT 6SM BR OVC015=



000
FTUS42 KRAH 241417 AAA
TAFGSO
TAF AMD
KGSO 241417Z 2414/2512 VRB04KT P6SM OVC030
     FM241800 VRB04KT P6SM BKN035
      TEMPO 2503/2506 P6SM -RA OVC015
     FM250600 08004KT 4SM BR OVC007 PROB30 2508/2512 4SM -RA OVC003=



000
FTUS42 KRAH 241417 AAA
TAFGSO
TAF AMD
KGSO 241417Z 2414/2512 VRB04KT P6SM OVC030
     FM241800 VRB04KT P6SM BKN035
      TEMPO 2503/2506 P6SM -RA OVC015
     FM250600 08004KT 4SM BR OVC007 PROB30 2508/2512 4SM -RA OVC003=



000
FTUS42 KRAH 241417 AAA
TAFGSO
TAF AMD
KGSO 241417Z 2414/2512 VRB04KT P6SM OVC030
     FM241800 VRB04KT P6SM BKN035
      TEMPO 2503/2506 P6SM -RA OVC015
     FM250600 08004KT 4SM BR OVC007 PROB30 2508/2512 4SM -RA OVC003=



000
FTUS42 KRAH 241417 AAA
TAFGSO
TAF AMD
KGSO 241417Z 2414/2512 VRB04KT P6SM OVC030
     FM241800 VRB04KT P6SM BKN035
      TEMPO 2503/2506 P6SM -RA OVC015
     FM250600 08004KT 4SM BR OVC007 PROB30 2508/2512 4SM -RA OVC003=



000
FTUS42 KRAH 241416 AAA
TAFINT
TAF AMD
KINT 241416Z 2414/2512 VRB04KT P6SM OVC029
     FM241800 VRB04KT P6SM OVC035
      TEMPO 2503/2506 P6SM -RA OVC015
     FM250600 08004KT 4SM BR OVC007 PROB30 2508/2512 4SM -RA OVC003=



000
FTUS42 KRAH 241416 AAA
TAFINT
TAF AMD
KINT 241416Z 2414/2512 VRB04KT P6SM OVC029
     FM241800 VRB04KT P6SM OVC035
      TEMPO 2503/2506 P6SM -RA OVC015
     FM250600 08004KT 4SM BR OVC007 PROB30 2508/2512 4SM -RA OVC003=



000
FTUS42 KRAH 241416 AAA
TAFINT
TAF AMD
KINT 241416Z 2414/2512 VRB04KT P6SM OVC029
     FM241800 VRB04KT P6SM OVC035
      TEMPO 2503/2506 P6SM -RA OVC015
     FM250600 08004KT 4SM BR OVC007 PROB30 2508/2512 4SM -RA OVC003=



000
FTUS42 KRAH 241416 AAA
TAFINT
TAF AMD
KINT 241416Z 2414/2512 VRB04KT P6SM OVC029
     FM241800 VRB04KT P6SM OVC035
      TEMPO 2503/2506 P6SM -RA OVC015
     FM250600 08004KT 4SM BR OVC007 PROB30 2508/2512 4SM -RA OVC003=



000
FTUS42 KRAH 241126
TAFFAY
TAF
KFAY 241126Z 2412/2512 VRB04KT P6SM SCT025 SCT040 SCT100
     FM250600 08006KT P6SM OVC015
     FM250900 07006KT P6SM OVC007=



000
FTUS42 KRAH 241126
TAFRDU
TAF
KRDU 241126Z 2412/2512 VRB04KT P6SM FEW025 SCT040 BKN100
     FM250600 08006KT P6SM OVC015
     FM250900 07006KT P6SM OVC007=



000
FTUS42 KRAH 241126
TAFGSO
TAF
KGSO 241126Z 2412/2512 VRB04KT P6SM SCT035 BKN050
      TEMPO 2503/2506 P6SM -RA OVC015
     FM250600 08004KT 4SM BR OVC007 PROB30 2508/2512 4SM -RA OVC003=



000
FTUS42 KRAH 241126
TAFINT
TAF
KINT 241126Z 2412/2512 VRB04KT P6SM SCT035 BKN050
      TEMPO 2503/2506 P6SM -RA OVC015
     FM250600 08004KT 4SM BR OVC007 PROB30 2508/2512 4SM -RA OVC003=



000
FTUS42 KRAH 241126
TAFRWI
TAF
KRWI 241126Z 2412/2512 VRB04KT P6SM FEW025 BKN040 BKN100
     FM250600 08006KT P6SM OVC015
     FM250900 07006KT P6SM OVC007=



000
FTUS42 KRAH 241126
TAFRDU
TAF
KRDU 241126Z 2412/2512 VRB04KT P6SM FEW025 SCT040 BKN100
     FM250600 08006KT P6SM OVC015
     FM250900 07006KT P6SM OVC007=



000
FTUS42 KRAH 241126
TAFRWI
TAF
KRWI 241126Z 2412/2512 VRB04KT P6SM FEW025 BKN040 BKN100
     FM250600 08006KT P6SM OVC015
     FM250900 07006KT P6SM OVC007=



000
FTUS42 KRAH 241126
TAFFAY
TAF
KFAY 241126Z 2412/2512 VRB04KT P6SM SCT025 SCT040 SCT100
     FM250600 08006KT P6SM OVC015
     FM250900 07006KT P6SM OVC007=



000
FTUS42 KRAH 241126
TAFRDU
TAF
KRDU 241126Z 2412/2512 VRB04KT P6SM FEW025 SCT040 BKN100
     FM250600 08006KT P6SM OVC015
     FM250900 07006KT P6SM OVC007=



000
FTUS42 KRAH 241126
TAFFAY
TAF
KFAY 241126Z 2412/2512 VRB04KT P6SM SCT025 SCT040 SCT100
     FM250600 08006KT P6SM OVC015
     FM250900 07006KT P6SM OVC007=



000
FTUS42 KRAH 241126
TAFINT
TAF
KINT 241126Z 2412/2512 VRB04KT P6SM SCT035 BKN050
      TEMPO 2503/2506 P6SM -RA OVC015
     FM250600 08004KT 4SM BR OVC007 PROB30 2508/2512 4SM -RA OVC003=



000
FTUS42 KRAH 241126
TAFGSO
TAF
KGSO 241126Z 2412/2512 VRB04KT P6SM SCT035 BKN050
      TEMPO 2503/2506 P6SM -RA OVC015
     FM250600 08004KT 4SM BR OVC007 PROB30 2508/2512 4SM -RA OVC003=



000
FTUS42 KRAH 241126
TAFINT
TAF
KINT 241126Z 2412/2512 VRB04KT P6SM SCT035 BKN050
      TEMPO 2503/2506 P6SM -RA OVC015
     FM250600 08004KT 4SM BR OVC007 PROB30 2508/2512 4SM -RA OVC003=



000
FTUS42 KRAH 241126
TAFRDU
TAF
KRDU 241126Z 2412/2512 VRB04KT P6SM FEW025 SCT040 BKN100
     FM250600 08006KT P6SM OVC015
     FM250900 07006KT P6SM OVC007=



000
FTUS42 KRAH 241126
TAFFAY
TAF
KFAY 241126Z 2412/2512 VRB04KT P6SM SCT025 SCT040 SCT100
     FM250600 08006KT P6SM OVC015
     FM250900 07006KT P6SM OVC007=



000
FTUS42 KRAH 241126
TAFGSO
TAF
KGSO 241126Z 2412/2512 VRB04KT P6SM SCT035 BKN050
      TEMPO 2503/2506 P6SM -RA OVC015
     FM250600 08004KT 4SM BR OVC007 PROB30 2508/2512 4SM -RA OVC003=



000
FTUS42 KRAH 241126
TAFRWI
TAF
KRWI 241126Z 2412/2512 VRB04KT P6SM FEW025 BKN040 BKN100
     FM250600 08006KT P6SM OVC015
     FM250900 07006KT P6SM OVC007=



000
FTUS42 KRAH 241126
TAFINT
TAF
KINT 241126Z 2412/2512 VRB04KT P6SM SCT035 BKN050
      TEMPO 2503/2506 P6SM -RA OVC015
     FM250600 08004KT 4SM BR OVC007 PROB30 2508/2512 4SM -RA OVC003=



000
FTUS42 KRAH 241126
TAFRWI
TAF
KRWI 241126Z 2412/2512 VRB04KT P6SM FEW025 BKN040 BKN100
     FM250600 08006KT P6SM OVC015
     FM250900 07006KT P6SM OVC007=



000
FTUS42 KRAH 241126
TAFGSO
TAF
KGSO 241126Z 2412/2512 VRB04KT P6SM SCT035 BKN050
      TEMPO 2503/2506 P6SM -RA OVC015
     FM250600 08004KT 4SM BR OVC007 PROB30 2508/2512 4SM -RA OVC003=



000
FTUS42 KRAH 240814 AAA
TAFRDU
TAF AMD
KRDU 240814Z 2408/2506 08005KT P6SM SCT025 BKN050
      TEMPO 2408/2412 BKN025
     FM241500 09004KT P6SM SCT045 BKN100=



000
FTUS42 KRAH 240814 AAA
TAFRDU
TAF AMD
KRDU 240814Z 2408/2506 08005KT P6SM SCT025 BKN050
      TEMPO 2408/2412 BKN025
     FM241500 09004KT P6SM SCT045 BKN100=



000
FTUS42 KRAH 240814 AAA
TAFRDU
TAF AMD
KRDU 240814Z 2408/2506 08005KT P6SM SCT025 BKN050
      TEMPO 2408/2412 BKN025
     FM241500 09004KT P6SM SCT045 BKN100=



000
FTUS42 KRAH 240813 AAA
TAFFAY
TAF AMD
KFAY 240813Z 2408/2506 08005KT P6SM SCT015 SCT045 SCT100
      TEMPO 2408/2412 BKN015=



000
FTUS42 KRAH 240813 AAA
TAFFAY
TAF AMD
KFAY 240813Z 2408/2506 08005KT P6SM SCT015 SCT045 SCT100
      TEMPO 2408/2412 BKN015=



000
FTUS42 KRAH 240812 AAA
TAFRWI
TAF AMD
KRWI 240812Z 2408/2506 05005KT P6SM SCT025 BKN050
      TEMPO 2408/2412 BKN025
     FM241500 08005KT P6SM SCT015 SCT045 BKN100=



000
FTUS42 KRAH 240812 AAA
TAFRWI
TAF AMD
KRWI 240812Z 2408/2506 05005KT P6SM SCT025 BKN050
      TEMPO 2408/2412 BKN025
     FM241500 08005KT P6SM SCT015 SCT045 BKN100=



    US Dept of Commerce
    National Oceanic and Atmospheric Administration
    National Weather Service
    1325 East West Highway
    Silver Spring, MD 20910
    Page Author: NWS Internet Services Team
Disclaimer
Information Quality
Credits
Glossary
Privacy Policy
Freedom of Information Act (FOIA)
About Us
Career Opportunities